| time (UTC) | temp F | wind direction | speed knots | gust knots | rain 1hr in | rain 24hr in | rain mn in | humidity % | barometer mb |
| 20260503010403 | 62 | 222 | 2.6 | 5.2 | 0.00 | 0.00 | 0.00 | 38 | 1010.0 |
| 20260503010304 | 62 | 221 | 2.6 | 5.2 | 0.00 | 0.00 | 0.00 | 39 | 1010.0 |
| 20260503010203 | 62 | 222 | 2.6 | 5.2 | 0.00 | 0.00 | 0.00 | 39 | 1010.1 |
| 20260503010104 | 62 | 221 | 2.6 | 5.2 | 0.00 | 0.00 | 0.00 | 38 | 1010.0 |
| 20260503010004 | 62 | 222 | 2.6 | 5.2 | 0.00 | 0.00 | 0.00 | 38 | 1010.1 |
| 20260503005918 | 62 | 225 | 2.6 | 7.0 | 0.00 | 0.00 | 0.00 | 39 | 1010.1 |
| 20260503005803 | 62 | 226 | 2.6 | 7.0 | 0.00 | 0.00 | 0.00 | 39 | 1010.0 |
| 20260503005703 | 62 | 228 | 2.6 | 7.0 | 0.00 | 0.00 | 0.00 | 39 | 1010.1 |
| 20260503005618 | 62 | 229 | 2.6 | 7.0 | 0.00 | 0.00 | 0.00 | 38 | 1010.2 |
| 20260503005504 | 62 | 226 | 2.6 | 7.0 | 0.00 | 0.00 | 0.00 | 38 | 1010.1 |
| 20260503005404 | 62 | 230 | 2.6 | 7.0 | 0.00 | 0.00 | 0.00 | 38 | 1010.2 |
| 20260503005304 | 62 | 230 | 2.6 | 7.0 | 0.00 | 0.00 | 0.00 | 38 | 1010.2 |
| 20260503005204 | 62 | 232 | 2.6 | 7.0 | 0.00 | 0.00 | 0.00 | 38 | 1010.2 |
| 20260503005104 | 62 | 231 | 2.6 | 7.0 | 0.00 | 0.00 | 0.00 | 38 | 1010.2 |
| 20260503005003 | 63 | 229 | 2.6 | 7.0 | 0.00 | 0.00 | 0.00 | 38 | 1010.2 |
| 20260503004904 | 63 | 226 | 2.6 | 7.0 | 0.00 | 0.00 | 0.00 | 38 | 1010.2 |
| 20260503004803 | 63 | 228 | 2.6 | 7.0 | 0.00 | 0.00 | 0.00 | 38 | 1010.3 |
| 20260503004703 | 63 | 228 | 2.6 | 7.0 | 0.00 | 0.00 | 0.00 | 38 | 1010.3 |
| 20260503004604 | 63 | 227 | 3.5 | 7.0 | 0.00 | 0.00 | 0.00 | 38 | 1010.2 |
| 20260503004505 | 63 | 224 | 3.5 | 7.0 | 0.00 | 0.00 | 0.00 | 38 | 1010.3 |
| 20260503004404 | 63 | 219 | 3.5 | 7.0 | 0.00 | 0.00 | 0.00 | 38 | 1010.2 |
| 20260503004304 | 63 | 220 | 3.5 | 7.0 | 0.00 | 0.00 | 0.00 | 38 | 1010.3 |
| 20260503004204 | 63 | 222 | 3.5 | 7.0 | 0.00 | 0.00 | 0.00 | 38 | 1010.3 |
| 20260503004103 | 63 | 224 | 3.5 | 7.0 | 0.00 | 0.00 | 0.00 | 38 | 1010.2 |
| 20260503004004 | 63 | 224 | 3.5 | 7.0 | 0.00 | 0.00 | 0.00 | 37 | 1010.3 |
| 20260503003918 | 63 | 225 | 3.5 | 7.0 | 0.00 | 0.00 | 0.00 | 37 | 1010.3 |
| 20260503003818 | 63 | 225 | 3.5 | 6.1 | 0.00 | 0.00 | 0.00 | 38 | 1010.3 |
| 20260503003704 | 63 | 228 | 3.5 | 6.1 | 0.00 | 0.00 | 0.00 | 38 | 1010.3 |
| 20260503003603 | 63 | 233 | 4.3 | 12.2 | 0.00 | 0.00 | 0.00 | 37 | 1010.4 |
| 20260503003503 | 63 | 238 | 5.2 | 12.2 | 0.00 | 0.00 | 0.00 | 38 | 1010.4 |
| 20260503003404 | 63 | 246 | 5.2 | 12.2 | 0.00 | 0.00 | 0.00 | 38 | 1010.4 |
| 20260503003305 | 63 | 244 | 5.2 | 12.2 | 0.00 | 0.00 | 0.00 | 37 | 1010.4 |
| 20260503003204 | 63 | 245 | 5.2 | 12.2 | 0.00 | 0.00 | 0.00 | 37 | 1010.4 |
| 20260503003103 | 63 | 250 | 5.2 | 12.2 | 0.00 | 0.00 | 0.00 | 37 | 1010.5 |
| 20260503003003 | 63 | 254 | 5.2 | 12.2 | 0.00 | 0.00 | 0.00 | 37 | 1010.5 |
| 20260503002903 | 63 | 255 | 6.1 | 12.2 | 0.00 | 0.00 | 0.00 | 37 | 1010.5 |
| 20260503002804 | 63 | 259 | 6.1 | 12.2 | 0.00 | 0.00 | 0.00 | 37 | 1010.6 |
| 20260503002704 | 63 | 256 | 6.1 | 12.2 | 0.00 | 0.00 | 0.00 | 37 | 1010.5 |
| 20260503002603 | 63 | 257 | 5.2 | 12.2 | 0.00 | 0.00 | 0.00 | 37 | 1010.6 |
| 20260503002504 | 63 | 257 | 5.2 | 10.4 | 0.00 | 0.00 | 0.00 | 36 | 1010.6 |
| 20260503002405 | 63 | 252 | 5.2 | 10.4 | 0.00 | 0.00 | 0.00 | 36 | 1010.6 |
| 20260503002305 | 63 | 256 | 5.2 | 10.4 | 0.00 | 0.00 | 0.00 | 36 | 1010.6 |
| 20260503002204 | 63 | 250 | 5.2 | 10.4 | 0.00 | 0.00 | 0.00 | 36 | 1010.6 |
| 20260503002103 | 63 | 243 | 5.2 | 10.4 | 0.00 | 0.00 | 0.00 | 36 | 1010.6 |
| 20260503002004 | 63 | 237 | 5.2 | 10.4 | 0.00 | 0.00 | 0.00 | 36 | 1010.6 |
| 20260503001903 | 63 | 238 | 4.3 | 10.4 | 0.00 | 0.00 | 0.00 | 36 | 1010.6 |
| 20260503001804 | 63 | 237 | 4.3 | 10.4 | 0.00 | 0.00 | 0.00 | 36 | 1010.6 |
| 20260503001704 | 63 | 240 | 4.3 | 10.4 | 0.00 | 0.00 | 0.00 | 36 | 1010.6 |
| 20260503001617 | 63 | 236 | 5.2 | 10.4 | 0.00 | 0.00 | 0.00 | 36 | 1010.6 |
| 20260503001503 | 63 | 233 | 5.2 | 10.4 | 0.00 | 0.00 | 0.00 | 36 | 1010.6 |
| 20260503001403 | 63 | 235 | 5.2 | 10.4 | 0.00 | 0.00 | 0.00 | 36 | 1010.6 |
| 20260503001304 | 63 | 235 | 5.2 | 10.4 | 0.00 | 0.00 | 0.00 | 36 | 1010.6 |
| 20260503001204 | 63 | 242 | 5.2 | 10.4 | 0.00 | 0.00 | 0.00 | 36 | 1010.6 |
| 20260503001104 | 63 | 247 | 5.2 | 10.4 | 0.00 | 0.00 | 0.00 | 36 | 1010.6 |
| 20260503001004 | 63 | 249 | 5.2 | 8.7 | 0.00 | 0.00 | 0.00 | 36 | 1010.6 |
| 20260503000903 | 63 | 248 | 7.0 | 15.6 | 0.00 | 0.00 | 0.00 | 36 | 1010.6 |
| 20260503000804 | 63 | 254 | 7.0 | 15.6 | 0.00 | 0.00 | 0.00 | 36 | 1010.6 |
| 20260503000703 | 64 | 255 | 7.0 | 15.6 | 0.00 | 0.00 | 0.00 | 36 | 1010.7 |
| 20260503000603 | 64 | 256 | 6.1 | 15.6 | 0.00 | 0.00 | 0.00 | 36 | 1010.7 |
| 20260503000504 | 64 | 258 | 6.1 | 15.6 | 0.00 | 0.00 | 0.00 | 36 | 1010.8 |
| 20260503000404 | 64 | 254 | 6.1 | 15.6 | 0.00 | 0.00 | 0.00 | 35 | 1010.9 |
| 20260503000318 | 64 | 253 | 6.1 | 15.6 | 0.00 | 0.00 | 0.00 | 35 | 1010.7 |
| 20260503000204 | 64 | 251 | 6.1 | 15.6 | 0.00 | 0.00 | 0.00 | 35 | 1010.8 |
| 20260503000104 | 64 | 243 | 6.1 | 15.6 | 0.00 | 0.00 | 0.00 | 35 | 1010.7 |
| 20260503000004 | 64 | 242 | 5.2 | 15.6 | 0.00 | 0.00 | 0.00 | 34 | 1010.7 |
| 20260502235918 | 64 | 238 | 4.3 | 15.6 | 0.00 | 0.00 | 0.00 | 34 | 1010.7 |
| 20260502235803 | 64 | 219 | 3.5 | 8.7 | 0.00 | 0.00 | 0.00 | 34 | 1010.6 |
| 20260502235704 | 64 | 217 | 3.5 | 7.0 | 0.00 | 0.00 | 0.00 | 33 | 1010.6 |
| 20260502235603 | 64 | 215 | 3.5 | 6.1 | 0.00 | 0.00 | 0.00 | 33 | 1010.6 |
| 20260502235504 | 64 | 218 | 3.5 | 6.1 | 0.00 | 0.00 | 0.00 | 33 | 1010.6 |
| 20260502235404 | 64 | 222 | 3.5 | 6.1 | 0.00 | 0.00 | 0.00 | 33 | 1010.6 |
| 20260502235305 | 64 | 225 | 3.5 | 6.1 | 0.00 | 0.00 | 0.00 | 34 | 1010.6 |
| 20260502235204 | 64 | 225 | 3.5 | 6.1 | 0.00 | 0.00 | 0.00 | 33 | 1010.6 |
| 20260502235104 | 64 | 232 | 2.6 | 6.1 | 0.00 | 0.00 | 0.00 | 33 | 1010.6 |
| 20260502235005 | 64 | 234 | 2.6 | 6.1 | 0.00 | 0.00 | 0.00 | 34 | 1010.6 |
| 20260502234904 | 64 | 235 | 2.6 | 6.1 | 0.00 | 0.00 | 0.00 | 34 | 1010.6 |
| 20260502234803 | 64 | 238 | 2.6 | 6.1 | 0.00 | 0.00 | 0.00 | 34 | 1010.6 |
| 20260502234704 | 64 | 239 | 2.6 | 6.1 | 0.00 | 0.00 | 0.00 | 34 | 1010.6 |
| 20260502234604 | 64 | 239 | 2.6 | 6.1 | 0.00 | 0.00 | 0.00 | 34 | 1010.6 |
| 20260502234504 | 64 | 233 | 1.7 | 6.1 | 0.00 | 0.00 | 0.00 | 33 | 1010.6 |
| 20260502234403 | 64 | 231 | 1.7 | 5.2 | 0.00 | 0.00 | 0.00 | 33 | 1010.6 |
| 20260502234303 | 64 | 224 | 1.7 | 2.6 | 0.00 | 0.00 | 0.00 | 33 | 1010.6 |
| 20260502234218 | 64 | 220 | 1.7 | 2.6 | 0.00 | 0.00 | 0.00 | 34 | 1010.6 |
| 20260502234104 | 64 | 216 | 1.7 | 2.6 | 0.00 | 0.00 | 0.00 | 34 | 1010.6 |
| 20260502234017 | 64 | 215 | 1.7 | 2.6 | 0.00 | 0.00 | 0.00 | 34 | 1010.6 |
| 20260502233903 | 64 | 214 | 1.7 | 2.6 | 0.00 | 0.00 | 0.00 | 33 | 1010.6 |
| 20260502233804 | 64 | 214 | 1.7 | 2.6 | 0.00 | 0.00 | 0.00 | 33 | 1010.6 |
| 20260502233718 | 64 | 205 | 1.7 | 2.6 | 0.00 | 0.00 | 0.00 | 34 | 1010.6 |
| 20260502233604 | 64 | 205 | 1.7 | 2.6 | 0.00 | 0.00 | 0.00 | 33 | 1010.7 |
| 20260502233503 | 64 | 205 | 1.7 | 4.3 | 0.00 | 0.00 | 0.00 | 34 | 1010.6 |
| 20260502233403 | 64 | 199 | 1.7 | 4.3 | 0.00 | 0.00 | 0.00 | 34 | 1010.7 |
| 20260502233303 | 64 | 198 | 1.7 | 4.3 | 0.00 | 0.00 | 0.00 | 33 | 1010.7 |
| 20260502233204 | 64 | 197 | 1.7 | 4.3 | 0.00 | 0.00 | 0.00 | 33 | 1010.7 |
| 20260502233103 | 64 | 192 | 1.7 | 4.3 | 0.00 | 0.00 | 0.00 | 33 | 1010.7 |
| 20260502233004 | 64 | 184 | 1.7 | 4.3 | 0.00 | 0.00 | 0.00 | 33 | 1010.7 |
| 20260502232919 | 64 | 192 | 1.7 | 4.3 | 0.00 | 0.00 | 0.00 | 33 | 1010.7 |
| 20260502232804 | 64 | 207 | 1.7 | 4.3 | 0.00 | 0.00 | 0.00 | 33 | 1010.7 |
| 20260502232705 | 64 | 234 | 1.7 | 4.3 | 0.00 | 0.00 | 0.00 | 33 | 1010.7 |
| 20260502232605 | 64 | 244 | 1.7 | 4.3 | 0.00 | 0.00 | 0.00 | 33 | 1010.6 |
| 20260502232505 | 64 | 260 | 1.7 | 4.3 | 0.00 | 0.00 | 0.00 | 33 | 1010.8 |
| 20260502232403 | 64 | 251 | 1.7 | 2.6 | 0.00 | 0.00 | 0.00 | 33 | 1011.0 |
| 20260502232305 | 64 | 239 | 1.7 | 2.6 | 0.00 | 0.00 | 0.00 | 33 | 1010.9 |
| 20260502232204 | 64 | 236 | 1.7 | 5.2 | 0.00 | 0.00 | 0.00 | 33 | 1010.9 |
| 20260502232105 | 64 | 234 | 2.6 | 5.2 | 0.00 | 0.00 | 0.00 | 33 | 1011.0 |
| 20260502232018 | 64 | 236 | 3.5 | 9.6 | 0.00 | 0.00 | 0.00 | 33 | 1011.0 |
| 20260502231919 | 64 | 240 | 4.3 | 9.6 | 0.00 | 0.00 | 0.00 | 33 | 1010.9 |
| 20260502231804 | 64 | 257 | 4.3 | 9.6 | 0.00 | 0.00 | 0.00 | 33 | 1010.9 |
| 20260502231704 | 64 | 271 | 4.3 | 9.6 | 0.00 | 0.00 | 0.00 | 33 | 1011.0 |
| 20260502231603 | 64 | 267 | 5.2 | 9.6 | 0.00 | 0.00 | 0.00 | 33 | 1010.9 |
| 20260502231504 | 64 | 268 | 5.2 | 9.6 | 0.00 | 0.00 | 0.00 | 32 | 1011.0 |
| 20260502231403 | 64 | 269 | 5.2 | 9.6 | 0.00 | 0.00 | 0.00 | 32 | 1011.0 |
| 20260502231304 | 64 | 265 | 5.2 | 9.6 | 0.00 | 0.00 | 0.00 | 32 | 1011.0 |
| 20260502231203 | 64 | 267 | 5.2 | 9.6 | 0.00 | 0.00 | 0.00 | 32 | 1011.0 |
| 20260502231118 | 64 | 271 | 4.3 | 9.6 | 0.00 | 0.00 | 0.00 | 33 | 1011.0 |
| 20260502231004 | 64 | 272 | 4.3 | 9.6 | 0.00 | 0.00 | 0.00 | 33 | 1010.9 |
| 20260502230904 | 64 | 273 | 4.3 | 8.7 | 0.00 | 0.00 | 0.00 | 32 | 1010.9 |
| 20260502230803 | 64 | 251 | 3.5 | 7.8 | 0.00 | 0.00 | 0.00 | 34 | 1010.9 |
| 20260502230704 | 64 | 232 | 2.6 | 6.1 | 0.00 | 0.00 | 0.00 | 34 | 1010.9 |
| 20260502230604 | 64 | 235 | 2.6 | 6.1 | 0.00 | 0.00 | 0.00 | 34 | 1010.9 |
| 20260502230505 | 64 | 235 | 2.6 | 7.8 | 0.00 | 0.00 | 0.00 | 33 | 1010.9 |
| 20260502230403 | 64 | 231 | 2.6 | 7.8 | 0.00 | 0.00 | 0.00 | 33 | 1011.0 |
| 20260502230319 | 64 | 237 | 2.6 | 7.8 | 0.00 | 0.00 | 0.00 | 32 | 1011.1 |
| 20260502230204 | 64 | 234 | 2.6 | 7.8 | 0.00 | 0.00 | 0.00 | 32 | 1011.1 |
| 20260502230118 | 64 | 234 | 2.6 | 7.8 | 0.00 | 0.00 | 0.00 | 33 | 1011.1 |
| 20260502230004 | 64 | 234 | 2.6 | 7.8 | 0.00 | 0.00 | 0.00 | 33 | 1011.1 |
| 20260502225903 | 64 | 233 | 2.6 | 7.8 | 0.00 | 0.00 | 0.00 | 33 | 1011.1 |
| 20260502225804 | 64 | 231 | 2.6 | 7.8 | 0.00 | 0.00 | 0.00 | 32 | 1011.1 |
| 20260502225704 | 64 | 231 | 2.6 | 7.8 | 0.00 | 0.00 | 0.00 | 32 | 1011.1 |
| 20260502225604 | 64 | 232 | 2.6 | 7.8 | 0.00 | 0.00 | 0.00 | 32 | 1011.1 |
| 20260502225504 | 64 | 226 | 1.7 | 7.8 | 0.00 | 0.00 | 0.00 | 33 | 1011.1 |
| 20260502225418 | 64 | 229 | 1.7 | 3.5 | 0.00 | 0.00 | 0.00 | 33 | 1011.2 |
| 20260502225317 | 64 | 235 | 2.6 | 7.8 | 0.00 | 0.00 | 0.00 | 33 | 1011.2 |
| 20260502225218 | 64 | 244 | 2.6 | 7.8 | 0.00 | 0.00 | 0.00 | 33 | 1011.2 |
| 20260502225103 | 64 | 247 | 2.6 | 7.8 | 0.00 | 0.00 | 0.00 | 33 | 1011.2 |
| 20260502225003 | 64 | 246 | 2.6 | 7.8 | 0.00 | 0.00 | 0.00 | 33 | 1011.2 |
| 20260502224904 | 64 | 247 | 2.6 | 7.8 | 0.00 | 0.00 | 0.00 | 32 | 1011.3 |
| 20260502224804 | 64 | 247 | 3.5 | 7.8 | 0.00 | 0.00 | 0.00 | 33 | 1011.2 |
| 20260502224703 | 64 | 247 | 3.5 | 7.8 | 0.00 | 0.00 | 0.00 | 33 | 1011.2 |
| 20260502224618 | 64 | 251 | 3.5 | 7.8 | 0.00 | 0.00 | 0.00 | 32 | 1011.2 |
| 20260502224504 | 64 | 253 | 4.3 | 7.8 | 0.00 | 0.00 | 0.00 | 32 | 1011.2 |
| 20260502224403 | 64 | 256 | 4.3 | 10.4 | 0.00 | 0.00 | 0.00 | 32 | 1011.2 |
| 20260502224304 | 64 | 253 | 5.2 | 10.4 | 0.00 | 0.00 | 0.00 | 32 | 1011.2 |
| 20260502224203 | 64 | 252 | 4.3 | 10.4 | 0.00 | 0.00 | 0.00 | 32 | 1011.3 |
| 20260502224103 | 64 | 257 | 4.3 | 10.4 | 0.00 | 0.00 | 0.00 | 32 | 1011.2 |
| 20260502224003 | 64 | 259 | 4.3 | 10.4 | 0.00 | 0.00 | 0.00 | 33 | 1011.3 |
| 20260502223904 | 64 | 258 | 4.3 | 10.4 | 0.00 | 0.00 | 0.00 | 32 | 1011.2 |
| 20260502223818 | 64 | 255 | 4.3 | 10.4 | 0.00 | 0.00 | 0.00 | 32 | 1011.3 |
| 20260502223704 | 64 | 256 | 4.3 | 10.4 | 0.00 | 0.00 | 0.00 | 32 | 1011.2 |
| 20260502223603 | 64 | 253 | 4.3 | 10.4 | 0.00 | 0.00 | 0.00 | 32 | 1011.4 |
| 20260502223518 | 64 | 252 | 4.3 | 10.4 | 0.00 | 0.00 | 0.00 | 32 | 1011.2 |
| 20260502223404 | 64 | 252 | 3.5 | 10.4 | 0.00 | 0.00 | 0.00 | 32 | 1011.3 |
| 20260502223304 | 64 | 253 | 3.5 | 7.8 | 0.00 | 0.00 | 0.00 | 32 | 1011.3 |
| 20260502223204 | 64 | 253 | 3.5 | 7.8 | 0.00 | 0.00 | 0.00 | 32 | 1011.3 |
| 20260502223103 | 64 | 244 | 3.5 | 7.8 | 0.00 | 0.00 | 0.00 | 32 | 1011.3 |
| 20260502223017 | 64 | 243 | 3.5 | 7.8 | 0.00 | 0.00 | 0.00 | 32 | 1011.3 |
| 20260502222904 | 64 | 241 | 3.5 | 7.8 | 0.00 | 0.00 | 0.00 | 32 | 1011.3 |
| 20260502222817 | 64 | 242 | 3.5 | 7.8 | 0.00 | 0.00 | 0.00 | 33 | 1011.3 |
| 20260502222717 | 64 | 246 | 2.6 | 7.8 | 0.00 | 0.00 | 0.00 | 33 | 1011.3 |
| 20260502222604 | 64 | 245 | 2.6 | 5.2 | 0.00 | 0.00 | 0.00 | 33 | 1011.3 |
| 20260502222503 | 64 | 249 | 2.6 | 5.2 | 0.00 | 0.00 | 0.00 | 33 | 1011.3 |
| 20260502222404 | 64 | 246 | 2.6 | 5.2 | 0.00 | 0.00 | 0.00 | 32 | 1011.3 |
| 20260502222305 | 64 | 244 | 3.5 | 8.7 | 0.00 | 0.00 | 0.00 | 32 | 1011.3 |
| 20260502222204 | 64 | 246 | 3.5 | 8.7 | 0.00 | 0.00 | 0.00 | 32 | 1011.3 |
| 20260502222104 | 64 | 240 | 3.5 | 8.7 | 0.00 | 0.00 | 0.00 | 32 | 1011.2 |
| 20260502222004 | 64 | 237 | 4.3 | 8.7 | 0.00 | 0.00 | 0.00 | 32 | 1011.3 |
| 20260502221903 | 64 | 240 | 4.3 | 8.7 | 0.00 | 0.00 | 0.00 | 32 | 1011.3 |
| 20260502221803 | 64 | 242 | 4.3 | 8.7 | 0.00 | 0.00 | 0.00 | 32 | 1011.3 |
| 20260502221704 | 64 | 240 | 4.3 | 8.7 | 0.00 | 0.00 | 0.00 | 32 | 1011.2 |
| 20260502221604 | 64 | 240 | 4.3 | 8.7 | 0.00 | 0.00 | 0.00 | 32 | 1011.3 |
| 20260502221518 | 64 | 239 | 4.3 | 8.7 | 0.00 | 0.00 | 0.00 | 32 | 1011.3 |
| 20260502221417 | 64 | 241 | 4.3 | 8.7 | 0.00 | 0.00 | 0.00 | 32 | 1011.3 |
| 20260502221317 | 64 | 245 | 4.3 | 8.7 | 0.00 | 0.00 | 0.00 | 32 | 1011.4 |
| 20260502221205 | 64 | 247 | 5.2 | 13.9 | 0.00 | 0.00 | 0.00 | 32 | 1011.4 |
| 20260502221104 | 64 | 255 | 5.2 | 13.9 | 0.00 | 0.00 | 0.00 | 33 | 1011.4 |
| 20260502221004 | 64 | 256 | 5.2 | 13.9 | 0.00 | 0.00 | 0.00 | 33 | 1011.5 |
| 20260502220903 | 64 | 256 | 5.2 | 13.9 | 0.00 | 0.00 | 0.00 | 32 | 1011.4 |
| 20260502220804 | 64 | 254 | 5.2 | 13.9 | 0.00 | 0.00 | 0.00 | 32 | 1011.5 |
| 20260502220703 | 64 | 257 | 4.3 | 13.9 | 0.00 | 0.00 | 0.00 | 32 | 1011.4 |
| 20260502220603 | 65 | 261 | 5.2 | 13.9 | 0.00 | 0.00 | 0.00 | 32 | 1011.5 |
| 20260502220504 | 65 | 258 | 4.3 | 13.9 | 0.00 | 0.00 | 0.00 | 32 | 1011.4 |
| 20260502220404 | 65 | 258 | 4.3 | 13.9 | 0.00 | 0.00 | 0.00 | 32 | 1011.4 |
| 20260502220304 | 65 | 257 | 4.3 | 13.9 | 0.00 | 0.00 | 0.00 | 31 | 1011.5 |
| 20260502220204 | 65 | 254 | 2.6 | 13.9 | 0.00 | 0.00 | 0.00 | 32 | 1011.6 |
| 20260502220118 | 65 | 247 | 2.6 | 7.0 | 0.00 | 0.00 | 0.00 | 32 | 1011.5 |
| 20260502220003 | 65 | 258 | 1.7 | 7.0 | 0.00 | 0.00 | 0.00 | 32 | 1011.5 |
| 20260502215904 | 65 | 259 | 1.7 | 7.0 | 0.00 | 0.00 | 0.00 | 32 | 1011.4 |
| 20260502215803 | 65 | 258 | 1.7 | 7.0 | 0.00 | 0.00 | 0.00 | 31 | 1011.5 |
| 20260502215704 | 65 | 245 | 2.6 | 7.0 | 0.00 | 0.00 | 0.00 | 31 | 1011.5 |
| 20260502215617 | 64 | 252 | 2.6 | 7.0 | 0.00 | 0.00 | 0.00 | 31 | 1011.5 |
| 20260502215503 | 64 | 254 | 2.6 | 6.1 | 0.00 | 0.00 | 0.00 | 32 | 1011.6 |
| 20260502215404 | 64 | 250 | 2.6 | 6.1 | 0.00 | 0.00 | 0.00 | 34 | 1011.5 |
| 20260502215305 | 64 | 250 | 3.5 | 11.3 | 0.00 | 0.00 | 0.00 | 32 | 1011.6 |
| 20260502215203 | 64 | 248 | 4.3 | 11.3 | 0.00 | 0.00 | 0.00 | 32 | 1011.7 |
| 20260502215104 | 64 | 239 | 4.3 | 11.3 | 0.00 | 0.00 | 0.00 | 32 | 1011.7 |
| 20260502215004 | 64 | 236 | 4.3 | 11.3 | 0.00 | 0.00 | 0.00 | 33 | 1011.7 |
| 20260502214904 | 64 | 240 | 5.2 | 11.3 | 0.00 | 0.00 | 0.00 | 33 | 1011.8 |
| 20260502214803 | 64 | 240 | 5.2 | 11.3 | 0.00 | 0.00 | 0.00 | 33 | 1011.8 |
| 20260502214704 | 64 | 244 | 5.2 | 11.3 | 0.00 | 0.00 | 0.00 | 34 | 1011.8 |
| 20260502214603 | 64 | 236 | 4.3 | 11.3 | 0.00 | 0.00 | 0.00 | 34 | 1011.8 |
| 20260502214517 | 64 | 235 | 4.3 | 11.3 | 0.00 | 0.00 | 0.00 | 33 | 1011.8 |
| 20260502214404 | 64 | 236 | 4.3 | 11.3 | 0.00 | 0.00 | 0.00 | 33 | 1011.7 |
| 20260502214318 | 64 | 237 | 4.3 | 11.3 | 0.00 | 0.00 | 0.00 | 31 | 1011.8 |
| 20260502214204 | 64 | 239 | 3.5 | 7.0 | 0.00 | 0.00 | 0.00 | 32 | 1011.8 |
| 20260502214117 | 64 | 244 | 3.5 | 7.0 | 0.00 | 0.00 | 0.00 | 32 | 1011.9 |
| 20260502214017 | 64 | 250 | 4.3 | 13.9 | 0.00 | 0.00 | 0.00 | 33 | 1011.9 |
| 20260502213904 | 64 | 246 | 5.2 | 13.9 | 0.00 | 0.00 | 0.00 | 32 | 1011.9 |
| 20260502213804 | 64 | 264 | 5.2 | 13.9 | 0.00 | 0.00 | 0.00 | 31 | 1011.9 |
| 20260502213718 | 64 | 266 | 5.2 | 13.9 | 0.00 | 0.00 | 0.00 | 31 | 1012.0 |
| 20260502213604 | 64 | 268 | 5.2 | 13.9 | 0.00 | 0.00 | 0.00 | 32 | 1012.0 |
| 20260502213518 | 64 | 269 | 5.2 | 13.9 | 0.00 | 0.00 | 0.00 | 32 | 1012.0 |
| 20260502213403 | 64 | 269 | 5.2 | 13.9 | 0.00 | 0.00 | 0.00 | 31 | 1012.0 |
| 20260502213318 | 64 | 267 | 6.1 | 13.9 | 0.00 | 0.00 | 0.00 | 31 | 1012.0 |
| 20260502213217 | 64 | 258 | 6.1 | 13.9 | 0.00 | 0.00 | 0.00 | 30 | 1012.0 |
| 20260502213104 | 64 | 256 | 6.1 | 13.9 | 0.00 | 0.00 | 0.00 | 30 | 1012.1 |
| 20260502213003 | 64 | 252 | 6.1 | 13.9 | 0.00 | 0.00 | 0.00 | 33 | 1012.0 |
| 20260502212904 | 64 | 249 | 5.2 | 11.3 | 0.00 | 0.00 | 0.00 | 33 | 1012.1 |
| 20260502212803 | 64 | 237 | 4.3 | 10.4 | 0.00 | 0.00 | 0.00 | 32 | 1012.1 |
| 20260502212704 | 64 | 236 | 4.3 | 10.4 | 0.00 | 0.00 | 0.00 | 32 | 1012.1 |
| 20260502212603 | 64 | 237 | 5.2 | 10.4 | 0.00 | 0.00 | 0.00 | 32 | 1012.1 |
| 20260502212504 | 64 | 243 | 4.3 | 10.4 | 0.00 | 0.00 | 0.00 | 32 | 1012.2 |
| 20260502212404 | 64 | 242 | 4.3 | 10.4 | 0.00 | 0.00 | 0.00 | 32 | 1012.3 |
| 20260502212305 | 64 | 241 | 5.2 | 13.9 | 0.00 | 0.00 | 0.00 | 32 | 1012.3 |
| 20260502212203 | 64 | 255 | 5.2 | 13.9 | 0.00 | 0.00 | 0.00 | 33 | 1012.3 |
| 20260502212104 | 64 | 261 | 4.3 | 13.9 | 0.00 | 0.00 | 0.00 | 32 | 1012.3 |
| 20260502212004 | 64 | 265 | 4.3 | 13.9 | 0.00 | 0.00 | 0.00 | 32 | 1012.4 |
| 20260502211903 | 64 | 269 | 4.3 | 13.9 | 0.00 | 0.00 | 0.00 | 32 | 1012.3 |
| 20260502211817 | 64 | 269 | 4.3 | 13.9 | 0.00 | 0.00 | 0.00 | 32 | 1012.4 |
| 20260502211717 | 64 | 266 | 4.3 | 13.9 | 0.00 | 0.00 | 0.00 | 32 | 1012.3 |
| 20260502211603 | 64 | 268 | 4.3 | 13.9 | 0.00 | 0.00 | 0.00 | 31 | 1012.3 |
| 20260502211504 | 64 | 260 | 4.3 | 13.9 | 0.00 | 0.00 | 0.00 | 31 | 1012.3 |
| 20260502211403 | 64 | 255 | 4.3 | 13.9 | 0.00 | 0.00 | 0.00 | 31 | 1012.5 |
| 20260502211303 | 64 | 259 | 3.5 | 13.9 | 0.00 | 0.00 | 0.00 | 32 | 1012.5 |
| 20260502211217 | 64 | 246 | 3.5 | 6.1 | 0.00 | 0.00 | 0.00 | 32 | 1012.5 |
| 20260502211103 | 64 | 244 | 4.3 | 8.7 | 0.00 | 0.00 | 0.00 | 31 | 1012.5 |
| 20260502211004 | 64 | 244 | 4.3 | 8.7 | 0.00 | 0.00 | 0.00 | 31 | 1012.6 |
| 20260502210904 | 64 | 248 | 4.3 | 8.7 | 0.00 | 0.00 | 0.00 | 30 | 1012.6 |
| 20260502210803 | 64 | 247 | 4.3 | 8.7 | 0.00 | 0.00 | 0.00 | 30 | 1012.6 |
| 20260502210703 | 64 | 246 | 4.3 | 8.7 | 0.00 | 0.00 | 0.00 | 32 | 1012.6 |
| 20260502210618 | 64 | 246 | 4.3 | 8.7 | 0.00 | 0.00 | 0.00 | 33 | 1012.7 |
| 20260502210504 | 64 | 242 | 5.2 | 8.7 | 0.00 | 0.00 | 0.00 | 33 | 1012.7 |
| 20260502210404 | 64 | 235 | 5.2 | 8.7 | 0.00 | 0.00 | 0.00 | 34 | 1012.7 |
| 20260502210303 | 64 | 232 | 5.2 | 8.7 | 0.00 | 0.00 | 0.00 | 33 | 1012.7 |
| 20260502210203 | 64 | 233 | 4.3 | 8.7 | 0.00 | 0.00 | 0.00 | 33 | 1012.7 |
| 20260502210103 | 64 | 234 | 4.3 | 8.7 | 0.00 | 0.00 | 0.00 | 32 | 1012.8 |
| 20260502210018 | 63 | 230 | 4.3 | 8.7 | 0.00 | 0.00 | 0.00 | 33 | 1012.8 |
| 20260502205917 | 63 | 221 | 3.5 | 8.7 | 0.00 | 0.00 | 0.00 | 31 | 1012.8 |
| 20260502205803 | 63 | 220 | 3.5 | 8.7 | 0.00 | 0.00 | 0.00 | 31 | 1012.8 |
| 20260502205703 | 63 | 225 | 3.5 | 8.7 | 0.00 | 0.00 | 0.00 | 31 | 1012.9 |
| 20260502205604 | 63 | 224 | 3.5 | 8.7 | 0.00 | 0.00 | 0.00 | 31 | 1012.8 |
| 20260502205503 | 63 | 226 | 3.5 | 8.7 | 0.00 | 0.00 | 0.00 | 32 | 1012.9 |
| 20260502205404 | 63 | 238 | 2.6 | 8.7 | 0.00 | 0.00 | 0.00 | 31 | 1012.9 |
| 20260502205305 | 63 | 232 | 2.6 | 4.3 | 0.00 | 0.00 | 0.00 | 33 | 1012.9 |
| 20260502205204 | 63 | 235 | 3.5 | 10.4 | 0.00 | 0.00 | 0.00 | 33 | 1013.0 |
| 20260502205103 | 63 | 243 | 4.3 | 10.4 | 0.00 | 0.00 | 0.00 | 32 | 1012.9 |
| 20260502205017 | 63 | 261 | 4.3 | 10.4 | 0.00 | 0.00 | 0.00 | 32 | 1013.0 |
| 20260502204917 | 63 | 262 | 4.3 | 10.4 | 0.00 | 0.00 | 0.00 | 31 | 1013.0 |
| 20260502204804 | 63 | 272 | 5.2 | 10.4 | 0.00 | 0.00 | 0.00 | 31 | 1013.1 |
| 20260502204703 | 63 | 271 | 5.2 | 10.4 | 0.00 | 0.00 | 0.00 | 32 | 1013.0 |
| 20260502204604 | 63 | 273 | 5.2 | 10.4 | 0.00 | 0.00 | 0.00 | 32 | 1013.0 |
| 20260502204503 | 64 | 272 | 5.2 | 10.4 | 0.00 | 0.00 | 0.00 | 31 | 1013.0 |
| 20260502204403 | 64 | 272 | 5.2 | 10.4 | 0.00 | 0.00 | 0.00 | 32 | 1013.1 |
| 20260502204304 | 64 | 272 | 5.2 | 10.4 | 0.00 | 0.00 | 0.00 | 32 | 1013.2 |
| 20260502204204 | 64 | 267 | 5.2 | 10.4 | 0.00 | 0.00 | 0.00 | 30 | 1013.1 |
| 20260502204104 | 64 | 262 | 7.0 | 15.6 | 0.00 | 0.00 | 0.00 | 31 | 1013.1 |
| 20260502204003 | 64 | 248 | 7.0 | 15.6 | 0.00 | 0.00 | 0.00 | 31 | 1013.2 |
| 20260502203904 | 64 | 243 | 7.8 | 15.6 | 0.00 | 0.00 | 0.00 | 35 | 1013.4 |
| 20260502203803 | 64 | 222 | 7.8 | 15.6 | 0.00 | 0.00 | 0.00 | 35 | 1013.3 |
| 20260502203703 | 63 | 220 | 7.0 | 15.6 | 0.00 | 0.00 | 0.00 | 32 | 1013.2 |
| 20260502203604 | 63 | 216 | 7.0 | 15.6 | 0.00 | 0.00 | 0.00 | 32 | 1013.3 |
| 20260502203504 | 63 | 217 | 7.0 | 15.6 | 0.00 | 0.00 | 0.00 | 32 | 1013.3 |
| 20260502203403 | 63 | 216 | 7.8 | 15.6 | 0.00 | 0.00 | 0.00 | 32 | 1013.3 |
| 20260502203318 | 63 | 212 | 7.8 | 15.6 | 0.00 | 0.00 | 0.00 | 31 | 1013.3 |
| 20260502203218 | 63 | 213 | 7.8 | 15.6 | 0.00 | 0.00 | 0.00 | 31 | 1013.4 |
| 20260502203103 | 63 | 216 | 7.0 | 15.6 | 0.00 | 0.00 | 0.00 | 32 | 1013.4 |
| 20260502203004 | 63 | 217 | 6.1 | 15.6 | 0.00 | 0.00 | 0.00 | 32 | 1013.3 |
| 20260502202904 | 63 | 222 | 6.1 | 12.2 | 0.00 | 0.00 | 0.00 | 32 | 1013.4 |
| 20260502202804 | 63 | 236 | 5.2 | 12.2 | 0.00 | 0.00 | 0.00 | 31 | 1013.4 |
| 20260502202718 | 63 | 238 | 5.2 | 12.2 | 0.00 | 0.00 | 0.00 | 31 | 1013.4 |
| 20260502202603 | 63 | 244 | 4.3 | 12.2 | 0.00 | 0.00 | 0.00 | 32 | 1013.5 |
| 20260502202503 | 63 | 248 | 4.3 | 12.2 | 0.00 | 0.00 | 0.00 | 30 | 1013.5 |
| 20260502202403 | 64 | 250 | 4.3 | 12.2 | 0.00 | 0.00 | 0.00 | 31 | 1013.5 |
| 20260502202305 | 64 | 262 | 4.3 | 12.2 | 0.00 | 0.00 | 0.00 | 31 | 1013.5 |
| 20260502202204 | 64 | 266 | 4.3 | 12.2 | 0.00 | 0.00 | 0.00 | 31 | 1013.5 |
| 20260502202103 | 64 | 273 | 4.3 | 12.2 | 0.00 | 0.00 | 0.00 | 31 | 1013.5 |
| 20260502202003 | 64 | 270 | 3.5 | 12.2 | 0.00 | 0.00 | 0.00 | 31 | 1013.6 |
| 20260502201903 | 64 | 273 | 3.5 | 7.0 | 0.00 | 0.00 | 0.00 | 31 | 1013.6 |
| 20260502201803 | 63 | 268 | 3.5 | 7.0 | 0.00 | 0.00 | 0.00 | 31 | 1013.6 |
| 20260502201703 | 63 | 256 | 4.3 | 8.7 | 0.00 | 0.00 | 0.00 | 31 | 1013.6 |
| 20260502201603 | 63 | 247 | 4.3 | 8.7 | 0.00 | 0.00 | 0.00 | 31 | 1013.6 |
| 20260502201517 | 63 | 245 | 4.3 | 8.7 | 0.00 | 0.00 | 0.00 | 34 | 1013.6 |
| 20260502201403 | 63 | 243 | 4.3 | 8.7 | 0.00 | 0.00 | 0.00 | 31 | 1013.6 |
| 20260502201303 | 63 | 242 | 4.3 | 8.7 | 0.00 | 0.00 | 0.00 | 31 | 1013.7 |
| 20260502201217 | 63 | 250 | 4.3 | 8.7 | 0.00 | 0.00 | 0.00 | 32 | 1013.7 |
| 20260502201119 | 63 | 241 | 4.3 | 10.4 | 0.00 | 0.00 | 0.00 | 32 | 1013.7 |
| 20260502201003 | 63 | 237 | 5.2 | 10.4 | 0.00 | 0.00 | 0.00 | 33 | 1013.7 |
| 20260502200903 | 63 | 235 | 5.2 | 10.4 | 0.00 | 0.00 | 0.00 | 34 | 1013.7 |
| 20260502200817 | 63 | 232 | 5.2 | 10.4 | 0.00 | 0.00 | 0.00 | 33 | 1013.7 |
| 20260502200717 | 63 | 239 | 5.2 | 10.4 | 0.00 | 0.00 | 0.00 | 32 | 1013.7 |
| 20260502200604 | 63 | 244 | 5.2 | 10.4 | 0.00 | 0.00 | 0.00 | 33 | 1013.8 |
| 20260502200518 | 62 | 249 | 5.2 | 10.4 | 0.00 | 0.00 | 0.00 | 33 | 1013.7 |
| 20260502200404 | 62 | 249 | 5.2 | 10.4 | 0.00 | 0.00 | 0.00 | 34 | 1013.7 |
| 20260502200318 | 62 | 250 | 6.1 | 10.4 | 0.00 | 0.00 | 0.00 | 34 | 1013.8 |
| 20260502200204 | 62 | 240 | 5.2 | 10.4 | 0.00 | 0.00 | 0.00 | 31 | 1013.8 |
| 20260502200004 | 62 | 240 | 5.2 | 9.6 | 0.00 | 0.00 | 0.00 | 32 | 1013.8 |
| 20260502195917 | 62 | 232 | 5.2 | 9.6 | 0.00 | 0.00 | 0.00 | 34 | 1013.8 |
| 20260502195817 | 62 | 229 | 5.2 | 9.6 | 0.00 | 0.00 | 0.00 | 34 | 1013.8 |
| 20260502195703 | 62 | 224 | 5.2 | 9.6 | 0.00 | 0.00 | 0.00 | 34 | 1013.8 |
| 20260502195603 | 62 | 218 | 5.2 | 9.6 | 0.00 | 0.00 | 0.00 | 34 | 1013.8 |
| 20260502195503 | 61 | 207 | 4.3 | 7.0 | 0.00 | 0.00 | 0.00 | 34 | 1014.0 |
| 20260502195417 | 61 | 203 | 4.3 | 7.0 | 0.00 | 0.00 | 0.00 | 36 | 1014.0 |
| 20260502195318 | 61 | 200 | 4.3 | 7.0 | 0.00 | 0.00 | 0.00 | 34 | 1014.0 |
| 20260502195203 | 61 | 203 | 4.3 | 7.0 | 0.00 | 0.00 | 0.00 | 32 | 1014.0 |
| 20260502195104 | 61 | 197 | 4.3 | 7.0 | 0.00 | 0.00 | 0.00 | 32 | 1014.0 |
| 20260502195003 | 61 | 201 | 4.3 | 7.0 | 0.00 | 0.00 | 0.00 | 33 | 1014.1 |
| 20260502194903 | 61 | 207 | 4.3 | 7.0 | 0.00 | 0.00 | 0.00 | 33 | 1014.0 |
| 20260502194803 | 61 | 212 | 4.3 | 7.0 | 0.00 | 0.00 | 0.00 | 33 | 1014.0 |
| 20260502194704 | 61 | 213 | 5.2 | 13.0 | 0.00 | 0.00 | 0.00 | 33 | 1014.1 |
| 20260502194603 | 61 | 218 | 5.2 | 13.0 | 0.00 | 0.00 | 0.00 | 33 | 1014.1 |
| 20260502194503 | 61 | 220 | 5.2 | 13.0 | 0.00 | 0.00 | 0.00 | 34 | 1014.1 |
| 20260502194403 | 61 | 224 | 6.1 | 13.0 | 0.00 | 0.00 | 0.00 | 35 | 1014.2 |
| 20260502194304 | 61 | 226 | 6.1 | 13.0 | 0.00 | 0.00 | 0.00 | 33 | 1014.2 |
| 20260502194204 | 61 | 235 | 6.1 | 13.0 | 0.00 | 0.00 | 0.00 | 33 | 1014.2 |
| 20260502194117 | 60 | 240 | 6.1 | 13.0 | 0.00 | 0.00 | 0.00 | 33 | 1014.3 |
| 20260502194003 | 60 | 239 | 6.1 | 13.0 | 0.00 | 0.00 | 0.00 | 35 | 1014.3 |
| 20260502193904 | 60 | 236 | 6.1 | 13.0 | 0.00 | 0.00 | 0.00 | 32 | 1014.3 |
| 20260502193804 | 60 | 239 | 6.1 | 13.0 | 0.00 | 0.00 | 0.00 | 33 | 1014.3 |
| 20260502193717 | 61 | 244 | 6.1 | 13.0 | 0.00 | 0.00 | 0.00 | 33 | 1014.3 |
| 20260502193604 | 61 | 249 | 5.2 | 11.3 | 0.00 | 0.00 | 0.00 | 33 | 1014.3 |
| 20260502193503 | 61 | 250 | 6.1 | 11.3 | 0.00 | 0.00 | 0.00 | 32 | 1014.4 |
| 20260502193403 | 61 | 250 | 5.2 | 11.3 | 0.00 | 0.00 | 0.00 | 33 | 1014.4 |
| 20260502193304 | 61 | 246 | 5.2 | 8.7 | 0.00 | 0.00 | 0.00 | 33 | 1014.4 |
| 20260502193204 | 60 | 237 | 4.3 | 7.0 | 0.00 | 0.00 | 0.00 | 34 | 1014.4 |
| 20260502193103 | 60 | 236 | 4.3 | 7.0 | 0.00 | 0.00 | 0.00 | 34 | 1014.4 |
| 20260502193004 | 60 | 231 | 5.2 | 12.2 | 0.00 | 0.00 | 0.00 | 34 | 1014.4 |
| 20260502192917 | 60 | 229 | 5.2 | 12.2 | 0.00 | 0.00 | 0.00 | 33 | 1014.4 |
| 20260502192804 | 60 | 230 | 6.1 | 12.2 | 0.00 | 0.00 | 0.00 | 33 | 1014.5 |
| 20260502192704 | 60 | 228 | 6.1 | 12.2 | 0.00 | 0.00 | 0.00 | 35 | 1014.6 |
| 20260502192604 | 60 | 224 | 5.2 | 12.2 | 0.00 | 0.00 | 0.00 | 33 | 1014.5 |
| 20260502192504 | 60 | 222 | 5.2 | 12.2 | 0.00 | 0.00 | 0.00 | 33 | 1014.5 |
| 20260502192403 | 59 | 223 | 5.2 | 12.2 | 0.00 | 0.00 | 0.00 | 33 | 1014.5 |
| 20260502192317 | 59 | 218 | 5.2 | 12.2 | 0.00 | 0.00 | 0.00 | 34 | 1014.6 |
| 20260502192204 | 59 | 226 | 5.2 | 12.2 | 0.00 | 0.00 | 0.00 | 33 | 1014.6 |
| 20260502192103 | 59 | 230 | 6.1 | 12.2 | 0.00 | 0.00 | 0.00 | 35 | 1014.6 |
| 20260502192004 | 59 | 231 | 5.2 | 12.2 | 0.00 | 0.00 | 0.00 | 34 | 1014.7 |
| 20260502191904 | 59 | 231 | 5.2 | 9.6 | 0.00 | 0.00 | 0.00 | 34 | 1014.6 |
| 20260502191803 | 59 | 227 | 4.3 | 9.6 | 0.00 | 0.00 | 0.00 | 35 | 1014.7 |
| 20260502191718 | 59 | 227 | 4.3 | 9.6 | 0.00 | 0.00 | 0.00 | 35 | 1014.7 |
| 20260502191604 | 59 | 229 | 4.3 | 9.6 | 0.00 | 0.00 | 0.00 | 35 | 1014.8 |
| 20260502191517 | 59 | 230 | 4.3 | 9.6 | 0.00 | 0.00 | 0.00 | 33 | 1014.7 |
| 20260502191403 | 59 | 230 | 5.2 | 9.6 | 0.00 | 0.00 | 0.00 | 32 | 1014.7 |
| 20260502191303 | 60 | 236 | 5.2 | 9.6 | 0.00 | 0.00 | 0.00 | 33 | 1014.7 |
| 20260502191204 | 60 | 231 | 5.2 | 9.6 | 0.00 | 0.00 | 0.00 | 32 | 1014.8 |
| 20260502191103 | 60 | 223 | 4.3 | 9.6 | 0.00 | 0.00 | 0.00 | 34 | 1014.8 |
| 20260502191003 | 60 | 224 | 4.3 | 9.6 | 0.00 | 0.00 | 0.00 | 34 | 1014.8 |
| 20260502190903 | 60 | 229 | 4.3 | 9.6 | 0.00 | 0.00 | 0.00 | 33 | 1014.8 |
| 20260502190803 | 60 | 233 | 4.3 | 9.6 | 0.00 | 0.00 | 0.00 | 33 | 1014.9 |
| 20260502190703 | 60 | 232 | 4.3 | 9.6 | 0.00 | 0.00 | 0.00 | 33 | 1014.9 |
| 20260502190604 | 60 | 230 | 4.3 | 9.6 | 0.00 | 0.00 | 0.00 | 33 | 1014.9 |
| 20260502190503 | 60 | 223 | 4.3 | 9.6 | 0.00 | 0.00 | 0.00 | 33 | 1014.9 |
| 20260502190404 | 60 | 221 | 4.3 | 9.6 | 0.00 | 0.00 | 0.00 | 33 | 1014.9 |
| 20260502190317 | 60 | 222 | 3.5 | 7.8 | 0.00 | 0.00 | 0.00 | 36 | 1014.9 |
| 20260502190205 | 60 | 220 | 3.5 | 7.0 | 0.00 | 0.00 | 0.00 | 36 | 1014.9 |
| 20260502190104 | 59 | 235 | 3.5 | 6.1 | 0.00 | 0.00 | 0.00 | 34 | 1015.0 |
| 20260502190004 | 59 | 232 | 3.5 | 7.0 | 0.00 | 0.00 | 0.00 | 33 | 1015.0 |
| 20260502185905 | 59 | 234 | 4.3 | 7.8 | 0.00 | 0.00 | 0.00 | 34 | 1015.0 |
| 20260502185804 | 59 | 232 | 4.3 | 7.8 | 0.00 | 0.00 | 0.00 | 33 | 1015.1 |
| 20260502185703 | 59 | 229 | 5.2 | 10.4 | 0.00 | 0.00 | 0.00 | 32 | 1015.1 |
| 20260502185603 | 60 | 228 | 5.2 | 10.4 | 0.00 | 0.00 | 0.00 | 34 | 1015.2 |
| 20260502185504 | 60 | 231 | 5.2 | 10.4 | 0.00 | 0.00 | 0.00 | 33 | 1015.1 |
| 20260502185404 | 60 | 234 | 5.2 | 10.4 | 0.00 | 0.00 | 0.00 | 32 | 1015.2 |
| 20260502185305 | 60 | 232 | 5.2 | 10.4 | 0.00 | 0.00 | 0.00 | 32 | 1015.2 |
| 20260502185203 | 60 | 230 | 4.3 | 10.4 | 0.00 | 0.00 | 0.00 | 32 | 1015.2 |
| 20260502185103 | 60 | 223 | 4.3 | 10.4 | 0.00 | 0.00 | 0.00 | 32 | 1015.2 |
| 20260502185017 | 60 | 227 | 4.3 | 10.4 | 0.00 | 0.00 | 0.00 | 32 | 1015.2 |
| 20260502184903 | 60 | 221 | 4.3 | 10.4 | 0.00 | 0.00 | 0.00 | 32 | 1015.3 |
| 20260502184804 | 60 | 212 | 4.3 | 10.4 | 0.00 | 0.00 | 0.00 | 33 | 1015.3 |
| 20260502184703 | 60 | 212 | 2.6 | 10.4 | 0.00 | 0.00 | 0.00 | 34 | 1015.3 |
| 20260502184604 | 60 | 212 | 2.6 | 6.1 | 0.00 | 0.00 | 0.00 | 35 | 1015.2 |
| 20260502184503 | 60 | 211 | 3.5 | 6.1 | 0.00 | 0.00 | 0.00 | 34 | 1015.3 |
| 20260502184404 | 60 | 214 | 4.3 | 13.0 | 0.00 | 0.00 | 0.00 | 34 | 1015.2 |
| 20260502184303 | 60 | 203 | 4.3 | 13.0 | 0.00 | 0.00 | 0.00 | 34 | 1015.3 |
| 20260502184218 | 59 | 201 | 4.3 | 13.0 | 0.00 | 0.00 | 0.00 | 34 | 1015.3 |
| 20260502184117 | 59 | 204 | 4.3 | 13.0 | 0.00 | 0.00 | 0.00 | 35 | 1015.3 |
| 20260502184004 | 59 | 203 | 4.3 | 13.0 | 0.00 | 0.00 | 0.00 | 32 | 1015.4 |
| 20260502183903 | 60 | 206 | 4.3 | 13.0 | 0.00 | 0.00 | 0.00 | 34 | 1015.4 |
| 20260502183804 | 60 | 208 | 4.3 | 13.0 | 0.00 | 0.00 | 0.00 | 34 | 1015.4 |
| 20260502183718 | 60 | 209 | 5.2 | 13.0 | 0.00 | 0.00 | 0.00 | 33 | 1015.5 |
| 20260502183603 | 60 | 217 | 5.2 | 13.0 | 0.00 | 0.00 | 0.00 | 35 | 1015.4 |
| 20260502183503 | 60 | 220 | 5.2 | 13.0 | 0.00 | 0.00 | 0.00 | 32 | 1015.3 |
| 20260502183417 | 60 | 221 | 5.2 | 13.0 | 0.00 | 0.00 | 0.00 | 34 | 1015.3 |
| 20260502183303 | 60 | 245 | 4.3 | 10.4 | 0.00 | 0.00 | 0.00 | 33 | 1015.4 |
| 20260502183203 | 60 | 255 | 4.3 | 10.4 | 0.00 | 0.00 | 0.00 | 33 | 1015.5 |
| 20260502183117 | 60 | 255 | 5.2 | 10.4 | 0.00 | 0.00 | 0.00 | 33 | 1015.5 |
| 20260502183017 | 59 | 255 | 5.2 | 10.4 | 0.00 | 0.00 | 0.00 | 35 | 1015.5 |
| 20260502182904 | 59 | 248 | 5.2 | 10.4 | 0.00 | 0.00 | 0.00 | 35 | 1015.6 |
| 20260502182803 | 59 | 241 | 6.1 | 10.4 | 0.00 | 0.00 | 0.00 | 32 | 1015.5 |
| 20260502182717 | 59 | 233 | 5.2 | 10.4 | 0.00 | 0.00 | 0.00 | 34 | 1015.6 |
| 20260502182603 | 59 | 224 | 5.2 | 8.7 | 0.00 | 0.00 | 0.00 | 34 | 1015.6 |
| 20260502182518 | 59 | 223 | 4.3 | 8.7 | 0.00 | 0.00 | 0.00 | 33 | 1015.6 |
| 20260502182404 | 59 | 214 | 4.3 | 8.7 | 0.00 | 0.00 | 0.00 | 35 | 1015.7 |
| 20260502182305 | 59 | 211 | 5.2 | 8.7 | 0.00 | 0.00 | 0.00 | 33 | 1015.6 |
| 20260502182203 | 59 | 209 | 5.2 | 8.7 | 0.00 | 0.00 | 0.00 | 33 | 1015.6 |
| 20260502182117 | 58 | 208 | 5.2 | 8.7 | 0.00 | 0.00 | 0.00 | 34 | 1015.6 |
| 20260502182004 | 58 | 203 | 5.2 | 8.7 | 0.00 | 0.00 | 0.00 | 33 | 1015.6 |
| 20260502181904 | 58 | 210 | 4.3 | 8.7 | 0.00 | 0.00 | 0.00 | 34 | 1015.6 |
| 20260502181803 | 58 | 211 | 3.5 | 7.0 | 0.00 | 0.00 | 0.00 | 34 | 1015.6 |
| 20260502181704 | 58 | 220 | 3.5 | 7.0 | 0.00 | 0.00 | 0.00 | 33 | 1015.6 |
| 20260502181603 | 58 | 225 | 3.5 | 7.0 | 0.00 | 0.00 | 0.00 | 33 | 1015.6 |
| 20260502181517 | 58 | 227 | 3.5 | 7.0 | 0.00 | 0.00 | 0.00 | 34 | 1015.6 |
| 20260502181403 | 58 | 234 | 4.3 | 10.4 | 0.00 | 0.00 | 0.00 | 32 | 1015.7 |
| 20260502181303 | 58 | 244 | 4.3 | 10.4 | 0.00 | 0.00 | 0.00 | 32 | 1015.7 |
| 20260502181217 | 59 | 250 | 4.3 | 10.4 | 0.00 | 0.00 | 0.00 | 33 | 1015.7 |
| 20260502181105 | 59 | 257 | 4.3 | 10.4 | 0.00 | 0.00 | 0.00 | 35 | 1015.7 |
| 20260502181017 | 59 | 268 | 5.2 | 10.4 | 0.00 | 0.00 | 0.00 | 36 | 1015.7 |
| 20260502180903 | 58 | 260 | 5.2 | 10.4 | 0.00 | 0.00 | 0.00 | 36 | 1015.7 |
| 20260502180804 | 58 | 262 | 5.2 | 10.4 | 0.00 | 0.00 | 0.00 | 33 | 1015.7 |
| 20260502180704 | 58 | 258 | 5.2 | 10.4 | 0.00 | 0.00 | 0.00 | 33 | 1015.8 |
| 20260502180603 | 58 | 253 | 5.2 | 10.4 | 0.00 | 0.00 | 0.00 | 35 | 1015.8 |
| 20260502180503 | 58 | 251 | 5.2 | 10.4 | 0.00 | 0.00 | 0.00 | 34 | 1015.9 |
| 20260502180403 | 58 | 253 | 5.2 | 10.4 | 0.00 | 0.00 | 0.00 | 33 | 1015.8 |
| 20260502180304 | 58 | 247 | 5.2 | 10.4 | 0.00 | 0.00 | 0.00 | 33 | 1015.8 |
| 20260502180204 | 58 | 243 | 4.3 | 10.4 | 0.00 | 0.00 | 0.00 | 33 | 1015.9 |
| 20260502170504 | 56 | 239 | 5.2 | 10.4 | 0.00 | 0.00 | 0.00 | 37 | 1016.9 |
| 20260502170403 | 56 | 239 | 5.2 | 10.4 | 0.00 | 0.00 | 0.00 | 37 | 1016.9 |
| 20260502170304 | 56 | 239 | 5.2 | 10.4 | 0.00 | 0.00 | 0.00 | 36 | 1016.8 |
| 20260502170203 | 56 | 233 | 4.3 | 9.6 | 0.00 | 0.00 | 0.00 | 38 | 1016.7 |
| 20260502170103 | 56 | 229 | 4.3 | 9.6 | 0.00 | 0.00 | 0.00 | 38 | 1016.9 |
| 20260502164303 | 56 | 276 | 4.3 | 8.7 | 0.00 | 0.00 | 0.00 | 35 | 1017.2 |
| 20260502164203 | 56 | 265 | 4.3 | 8.7 | 0.00 | 0.00 | 0.00 | 36 | 1017.2 |
| 20260502164103 | 56 | 254 | 4.3 | 7.8 | 0.00 | 0.00 | 0.00 | 36 | 1017.3 |
| 20260502164003 | 56 | 242 | 3.5 | 7.8 | 0.00 | 0.00 | 0.00 | 37 | 1017.3 |
| 20260502163903 | 56 | 237 | 3.5 | 7.8 | 0.00 | 0.00 | 0.00 | 38 | 1017.3 |
| 20260502163803 | 56 | 237 | 3.5 | 7.8 | 0.00 | 0.00 | 0.00 | 38 | 1017.3 |
| 20260502163703 | 56 | 235 | 4.3 | 7.8 | 0.00 | 0.00 | 0.00 | 37 | 1017.3 |
| 20260502163604 | 56 | 236 | 3.5 | 7.8 | 0.00 | 0.00 | 0.00 | 37 | 1017.3 |
| 20260502163503 | 56 | 241 | 3.5 | 7.0 | 0.00 | 0.00 | 0.00 | 38 | 1017.3 |
| 20260502163417 | 56 | 237 | 3.5 | 7.0 | 0.00 | 0.00 | 0.00 | 36 | 1017.4 |
| 20260502163303 | 56 | 240 | 3.5 | 7.0 | 0.00 | 0.00 | 0.00 | 36 | 1017.3 |
| 20260502163203 | 56 | 243 | 3.5 | 7.0 | 0.00 | 0.00 | 0.00 | 37 | 1017.4 |
| 20260502163103 | 56 | 243 | 4.3 | 10.4 | 0.00 | 0.00 | 0.00 | 38 | 1017.4 |
| 20260502163017 | 56 | 248 | 4.3 | 10.4 | 0.00 | 0.00 | 0.00 | 37 | 1017.4 |
| 20260502162918 | 56 | 252 | 4.3 | 10.4 | 0.00 | 0.00 | 0.00 | 38 | 1017.5 |
| 20260502162803 | 56 | 253 | 4.3 | 10.4 | 0.00 | 0.00 | 0.00 | 37 | 1017.4 |
| 20260502162703 | 56 | 259 | 4.3 | 10.4 | 0.00 | 0.00 | 0.00 | 37 | 1017.4 |
| 20260502162603 | 56 | 264 | 4.3 | 10.4 | 0.00 | 0.00 | 0.00 | 37 | 1017.4 |
| 20260502162503 | 56 | 267 | 4.3 | 10.4 | 0.00 | 0.00 | 0.00 | 37 | 1017.5 |
| 20260502162403 | 56 | 270 | 4.3 | 10.4 | 0.00 | 0.00 | 0.00 | 37 | 1017.4 |
| 20260502162305 | 56 | 269 | 4.3 | 10.4 | 0.00 | 0.00 | 0.00 | 37 | 1017.4 |
| 20260502162203 | 56 | 271 | 3.5 | 10.4 | 0.00 | 0.00 | 0.00 | 36 | 1017.4 |
| 20260502162103 | 56 | 276 | 3.5 | 10.4 | 0.00 | 0.00 | 0.00 | 36 | 1017.4 |
| 20260502162003 | 56 | 279 | 2.6 | 9.6 | 0.00 | 0.00 | 0.00 | 35 | 1017.4 |
| 20260502161903 | 56 | 279 | 2.6 | 7.8 | 0.00 | 0.00 | 0.00 | 36 | 1017.5 |
| 20260502161804 | 56 | 280 | 2.6 | 7.8 | 0.00 | 0.00 | 0.00 | 35 | 1017.5 |
| 20260502161718 | 56 | 282 | 2.6 | 7.8 | 0.00 | 0.00 | 0.00 | 35 | 1017.5 |
| 20260502161603 | 56 | 278 | 3.5 | 7.8 | 0.00 | 0.00 | 0.00 | 36 | 1017.5 |
| 20260502161503 | 56 | 283 | 3.5 | 7.8 | 0.00 | 0.00 | 0.00 | 37 | 1017.5 |
| 20260502161403 | 56 | 288 | 3.5 | 7.8 | 0.00 | 0.00 | 0.00 | 37 | 1017.5 |
| 20260502161304 | 56 | 283 | 3.5 | 7.8 | 0.00 | 0.00 | 0.00 | 35 | 1017.5 |
| 20260502161203 | 56 | 286 | 3.5 | 9.6 | 0.00 | 0.00 | 0.00 | 35 | 1017.5 |
| 20260502161117 | 56 | 284 | 4.3 | 9.6 | 0.00 | 0.00 | 0.00 | 34 | 1017.6 |
| 20260502161003 | 56 | 285 | 4.3 | 9.6 | 0.00 | 0.00 | 0.00 | 38 | 1017.6 |
| 20260502160903 | 56 | 290 | 4.3 | 9.6 | 0.00 | 0.00 | 0.00 | 38 | 1017.6 |
| 20260502160817 | 56 | 294 | 4.3 | 9.6 | 0.00 | 0.00 | 0.00 | 36 | 1017.6 |
| 20260502160704 | 56 | 292 | 4.3 | 9.6 | 0.00 | 0.00 | 0.00 | 36 | 1017.7 |
| 20260502160603 | 55 | 288 | 4.3 | 9.6 | 0.00 | 0.00 | 0.00 | 37 | 1017.6 |
| 20260502160503 | 55 | 276 | 4.3 | 9.6 | 0.00 | 0.00 | 0.00 | 37 | 1017.7 |
| 20260502160403 | 55 | 269 | 4.3 | 9.6 | 0.00 | 0.00 | 0.00 | 37 | 1017.7 |
| 20260502160303 | 55 | 265 | 4.3 | 9.6 | 0.00 | 0.00 | 0.00 | 37 | 1017.7 |
| 20260502160217 | 55 | 271 | 3.5 | 9.6 | 0.00 | 0.00 | 0.00 | 37 | 1017.7 |
| 20260502160103 | 55 | 274 | 4.3 | 7.8 | 0.00 | 0.00 | 0.00 | 38 | 1017.7 |
| 20260502152217 | 54 | 284 | 3.5 | 7.8 | 0.00 | 0.00 | 0.00 | 40 | 1018.0 |
| 20260502152103 | 54 | 282 | 3.5 | 7.8 | 0.00 | 0.00 | 0.00 | 39 | 1018.0 |
| 20260502152004 | 54 | 282 | 3.5 | 7.8 | 0.00 | 0.00 | 0.00 | 39 | 1018.0 |
| 20260502151903 | 54 | 282 | 3.5 | 7.8 | 0.00 | 0.00 | 0.00 | 39 | 1018.0 |
| 20260502151803 | 54 | 272 | 3.5 | 7.8 | 0.00 | 0.00 | 0.00 | 38 | 1018.1 |
| 20260502151704 | 54 | 270 | 3.5 | 7.8 | 0.00 | 0.00 | 0.00 | 39 | 1018.0 |
| 20260502151603 | 54 | 260 | 2.6 | 7.0 | 0.00 | 0.00 | 0.00 | 39 | 1018.0 |
| 20260502151504 | 53 | 253 | 2.6 | 5.2 | 0.00 | 0.00 | 0.00 | 39 | 1018.0 |
| 20260502151403 | 53 | 252 | 2.6 | 5.2 | 0.00 | 0.00 | 0.00 | 39 | 1018.2 |
| 20260502151303 | 53 | 250 | 2.6 | 5.2 | 0.00 | 0.00 | 0.00 | 39 | 1018.2 |
| 20260502151203 | 53 | 248 | 2.6 | 5.2 | 0.00 | 0.00 | 0.00 | 40 | 1018.2 |
| 20260502151104 | 53 | 252 | 2.6 | 5.2 | 0.00 | 0.00 | 0.00 | 40 | 1018.2 |
| 20260502151004 | 53 | 247 | 2.6 | 5.2 | 0.00 | 0.00 | 0.00 | 41 | 1018.2 |
| 20260502150917 | 53 | 245 | 2.6 | 7.0 | 0.00 | 0.00 | 0.00 | 40 | 1018.2 |
| 20260502150803 | 53 | 232 | 3.5 | 8.7 | 0.00 | 0.00 | 0.00 | 40 | 1018.2 |
| 20260502150703 | 53 | 234 | 3.5 | 8.7 | 0.00 | 0.00 | 0.00 | 40 | 1018.1 |
| 20260502150603 | 53 | 233 | 3.5 | 8.7 | 0.00 | 0.00 | 0.00 | 41 | 1018.2 |
| 20260502150503 | 53 | 237 | 4.3 | 8.7 | 0.00 | 0.00 | 0.00 | 41 | 1018.2 |
| 20260502150403 | 53 | 233 | 4.3 | 8.7 | 0.00 | 0.00 | 0.00 | 41 | 1018.1 |
| 20260502150303 | 53 | 234 | 4.3 | 8.7 | 0.00 | 0.00 | 0.00 | 41 | 1018.1 |
| 20260502150203 | 53 | 234 | 4.3 | 8.7 | 0.00 | 0.00 | 0.00 | 41 | 1018.1 |
| 20260502150103 | 53 | 233 | 4.3 | 8.7 | 0.00 | 0.00 | 0.00 | 41 | 1018.1 |
| 20260502140119 | 50 | 281 | 1.7 | 4.3 | 0.00 | 0.00 | 0.00 | 47 | 1018.6 |
| 20260502130705 | 44 | 360 | 1.7 | 4.3 | 0.00 | 0.00 | 0.00 | 60 | 1018.6 |
| 20260502130605 | 44 | 360 | 2.6 | 4.3 | 0.00 | 0.00 | 0.00 | 60 | 1018.6 |
| 20260502130505 | 44 | 360 | 2.6 | 4.3 | 0.00 | 0.00 | 0.00 | 61 | 1018.6 |
| 20260502130404 | 44 | 360 | 1.7 | 4.3 | 0.00 | 0.00 | 0.00 | 61 | 1018.6 |
| 20260502130305 | 44 | 360 | 1.7 | 4.3 | 0.00 | 0.00 | 0.00 | 61 | 1018.6 |
| 20260502130204 | 44 | 360 | 1.7 | 4.3 | 0.00 | 0.00 | 0.00 | 61 | 1018.6 |
| 20260502130119 | 43 | 360 | 1.7 | 4.3 | 0.00 | 0.00 | 0.00 | 61 | 1018.7 |
| 20260502123805 | 42 | 360 | 0.9 | 3.5 | 0.00 | 0.00 | 0.00 | 65 | 1018.5 |
| 20260502123719 | 42 | 360 | 0.9 | 2.6 | 0.00 | 0.00 | 0.00 | 66 | 1018.5 |
| 20260502123605 | 42 | 360 | 1.7 | 2.6 | 0.00 | 0.00 | 0.00 | 66 | 1018.5 |
| 20260502123505 | 42 | 360 | 1.7 | 2.6 | 0.00 | 0.00 | 0.00 | 66 | 1018.5 |
| 20260502123404 | 42 | 360 | 1.7 | 2.6 | 0.00 | 0.00 | 0.00 | 66 | 1018.4 |
| 20260502123305 | 41 | 360 | 1.7 | 2.6 | 0.00 | 0.00 | 0.00 | 67 | 1018.4 |
| 20260502123204 | 41 | 360 | 1.7 | 2.6 | 0.00 | 0.00 | 0.00 | 67 | 1018.4 |
| 20260502123106 | 41 | 360 | 1.7 | 2.6 | 0.00 | 0.00 | 0.00 | 66 | 1018.4 |
| 20260502123018 | 41 | 360 | 1.7 | 2.6 | 0.00 | 0.00 | 0.00 | 67 | 1018.4 |
| 20260502122905 | 41 | 360 | 0.9 | 2.6 | 0.00 | 0.00 | 0.00 | 67 | 1018.4 |
| 20260502122805 | 41 | 360 | 0.9 | 2.6 | 0.00 | 0.00 | 0.00 | 67 | 1018.3 |
| 20260502122704 | 41 | 360 | 0.9 | 2.6 | 0.00 | 0.00 | 0.00 | 68 | 1018.4 |
| 20260502122605 | 41 | 360 | 0.9 | 2.6 | 0.00 | 0.00 | 0.00 | 68 | 1018.3 |
| 20260502122505 | 41 | 360 | 0.9 | 1.7 | 0.00 | 0.00 | 0.00 | 68 | 1018.3 |
| 20260502122404 | 40 | 360 | 0.9 | 1.7 | 0.00 | 0.00 | 0.00 | 68 | 1018.3 |
| 20260502122306 | 40 | 360 | 0.9 | 1.7 | 0.00 | 0.00 | 0.00 | 68 | 1018.3 |
| 20260502122218 | 40 | 360 | 0.9 | 1.7 | 0.00 | 0.00 | 0.00 | 68 | 1018.4 |
| 20260502122105 | 40 | 360 | 0.9 | 1.7 | 0.00 | 0.00 | 0.00 | 68 | 1018.3 |
| 20260502122018 | 40 | 360 | 0.9 | 1.7 | 0.00 | 0.00 | 0.00 | 68 | 1018.3 |
| 20260502121904 | 40 | 360 | 0.9 | 1.7 | 0.00 | 0.00 | 0.00 | 68 | 1018.3 |
| 20260502121819 | 40 | 360 | 0.9 | 1.7 | 0.00 | 0.00 | 0.00 | 69 | 1018.4 |
| 20260502121705 | 40 | 360 | 0.9 | 1.7 | 0.00 | 0.00 | 0.00 | 69 | 1018.3 |
| 20260502121605 | 40 | 360 | 0.9 | 1.7 | 0.00 | 0.00 | 0.00 | 69 | 1018.3 |
| 20260502121505 | 40 | 360 | 0.9 | 1.7 | 0.00 | 0.00 | 0.00 | 69 | 1018.3 |
| 20260502121418 | 40 | 360 | 0.0 | 1.7 | 0.00 | 0.00 | 0.00 | 69 | 1018.3 |
| 20260502121305 | 40 | 360 | 0.9 | 1.7 | 0.00 | 0.00 | 0.00 | 69 | 1018.3 |
| 20260502121204 | 40 | 360 | 0.9 | 1.7 | 0.00 | 0.00 | 0.00 | 69 | 1018.3 |
| 20260502121105 | 39 | 360 | 0.9 | 1.7 | 0.00 | 0.00 | 0.00 | 69 | 1018.3 |
| 20260502121005 | 39 | 360 | 0.9 | 1.7 | 0.00 | 0.00 | 0.00 | 69 | 1018.3 |
| 20260502120904 | 39 | 360 | 0.9 | 2.6 | 0.00 | 0.00 | 0.00 | 69 | 1018.3 |
| 20260502120805 | 39 | 360 | 0.9 | 2.6 | 0.00 | 0.00 | 0.00 | 69 | 1018.3 |
| 20260502120718 | 39 | 360 | 0.9 | 3.5 | 0.00 | 0.00 | 0.00 | 69 | 1018.3 |
| 20260502120604 | 39 | 360 | 1.7 | 3.5 | 0.00 | 0.00 | 0.00 | 70 | 1018.4 |
| 20260502120505 | 39 | 360 | 1.7 | 3.5 | 0.00 | 0.00 | 0.00 | 70 | 1018.4 |
| 20260502120419 | 39 | 360 | 1.7 | 3.5 | 0.00 | 0.00 | 0.00 | 70 | 1018.4 |
| 20260502120305 | 38 | 360 | 1.7 | 3.5 | 0.00 | 0.00 | 0.00 | 70 | 1018.4 |
| 20260502120204 | 38 | 360 | 1.7 | 3.5 | 0.00 | 0.00 | 0.00 | 70 | 1018.4 |
| 20260502120105 | 38 | 360 | 0.9 | 3.5 | 0.00 | 0.00 | 0.00 | 71 | 1018.3 |
| 20260502115904 | 38 | 360 | 0.9 | 3.5 | 0.00 | 0.00 | 0.00 | 72 | 1018.3 |
| 20260502115805 | 38 | 360 | 0.9 | 3.5 | 0.00 | 0.00 | 0.00 | 73 | 1018.3 |
| 20260502115705 | 37 | 360 | 0.9 | 3.5 | 0.00 | 0.00 | 0.00 | 73 | 1018.3 |
| 20260502115604 | 37 | 360 | 0.9 | 1.7 | 0.00 | 0.00 | 0.00 | 73 | 1018.3 |
| 20260502115504 | 37 | 360 | 0.9 | 1.7 | 0.00 | 0.00 | 0.00 | 74 | 1018.3 |
| 20260502115404 | 37 | 360 | 0.9 | 1.7 | 0.00 | 0.00 | 0.00 | 74 | 1018.3 |
| 20260502115306 | 36 | 360 | 0.9 | 1.7 | 0.00 | 0.00 | 0.00 | 74 | 1018.3 |
| 20260502115205 | 36 | 360 | 0.9 | 1.7 | 0.00 | 0.00 | 0.00 | 75 | 1018.3 |
| 20260502115104 | 36 | 360 | 0.0 | 0.9 | 0.00 | 0.00 | 0.00 | 75 | 1018.3 |
| 20260502115005 | 36 | 360 | 0.9 | 1.7 | 0.00 | 0.00 | 0.00 | 76 | 1018.3 |
| 20260502114904 | 36 | 360 | 0.9 | 1.7 | 0.00 | 0.00 | 0.00 | 76 | 1018.2 |
| 20260502114805 | 36 | 360 | 0.9 | 1.7 | 0.00 | 0.00 | 0.00 | 76 | 1018.2 |
| 20260502114705 | 36 | 360 | 0.0 | 1.7 | 0.00 | 0.00 | 0.00 | 76 | 1018.3 |
| 20260502114604 | 35 | 360 | 0.0 | 1.7 | 0.00 | 0.00 | 0.00 | 76 | 1018.3 |
| 20260502114419 | 35 | 360 | 0.0 | 1.7 | 0.00 | 0.00 | 0.00 | 77 | 1018.3 |
| 20260502114304 | 35 | 360 | 0.0 | 1.7 | 0.00 | 0.00 | 0.00 | 77 | 1018.2 |
| 20260502114204 | 35 | 360 | 0.0 | 1.7 | 0.00 | 0.00 | 0.00 | 77 | 1018.2 |
| 20260502114105 | 35 | 360 | 0.0 | 1.7 | 0.00 | 0.00 | 0.00 | 77 | 1018.2 |
| 20260502114004 | 35 | 360 | 0.0 | 1.7 | 0.00 | 0.00 | 0.00 | 77 | 1018.2 |
| 20260502113905 | 35 | 0 | 0.0 | 0.0 | 0.00 | 0.00 | 0.00 | 77 | 1018.2 |
| 20260502113805 | 35 | 0 | 0.0 | 0.0 | 0.00 | 0.00 | 0.00 | 77 | 1018.2 |
| 20260502113718 | 35 | 0 | 0.0 | 0.0 | 0.00 | 0.00 | 0.00 | 77 | 1018.2 |
| 20260502113618 | 35 | 0 | 0.0 | 0.0 | 0.00 | 0.00 | 0.00 | 77 | 1018.2 |
| 20260502113505 | 34 | 0 | 0.0 | 0.0 | 0.00 | 0.00 | 0.00 | 77 | 1018.2 |
| 20260502113404 | 34 | 0 | 0.0 | 0.0 | 0.00 | 0.00 | 0.00 | 77 | 1018.1 |
| 20260502113318 | 34 | 0 | 0.0 | 0.0 | 0.00 | 0.00 | 0.00 | 77 | 1018.2 |
| 20260502113205 | 34 | 0 | 0.0 | 0.0 | 0.00 | 0.00 | 0.00 | 77 | 1018.2 |
| 20260502113104 | 34 | 0 | 0.0 | 0.0 | 0.00 | 0.00 | 0.00 | 77 | 1018.1 |
| 20260502113005 | 34 | 0 | 0.0 | 0.0 | 0.00 | 0.00 | 0.00 | 77 | 1018.2 |
| 20260502112904 | 34 | 0 | 0.0 | 0.0 | 0.00 | 0.00 | 0.00 | 77 | 1018.2 |
| 20260502112805 | 34 | 0 | 0.0 | 0.0 | 0.00 | 0.00 | 0.00 | 77 | 1018.1 |
| 20260502112704 | 34 | 0 | 0.0 | 0.0 | 0.00 | 0.00 | 0.00 | 77 | 1018.2 |
| 20260502112605 | 34 | 0 | 0.0 | 0.0 | 0.00 | 0.00 | 0.00 | 77 | 1018.2 |
| 20260502112519 | 34 | 0 | 0.0 | 0.0 | 0.00 | 0.00 | 0.00 | 77 | 1018.1 |
| 20260502112404 | 34 | 0 | 0.0 | 0.0 | 0.00 | 0.00 | 0.00 | 76 | 1018.1 |
| 20260502112306 | 34 | 0 | 0.0 | 0.0 | 0.00 | 0.00 | 0.00 | 76 | 1018.1 |
| 20260502112204 | 34 | 0 | 0.0 | 0.0 | 0.00 | 0.00 | 0.00 | 76 | 1018.1 |
| 20260502112104 | 34 | 0 | 0.0 | 0.0 | 0.00 | 0.00 | 0.00 | 76 | 1018.2 |
| 20260502112005 | 34 | 0 | 0.0 | 0.0 | 0.00 | 0.00 | 0.00 | 76 | 1018.1 |
| 20260502111918 | 34 | 0 | 0.0 | 0.0 | 0.00 | 0.00 | 0.00 | 76 | 1018.1 |
| 20260502111818 | 34 | 0 | 0.0 | 0.0 | 0.00 | 0.00 | 0.00 | 76 | 1018.1 |
| 20260502111706 | 34 | 0 | 0.0 | 0.0 | 0.00 | 0.00 | 0.00 | 75 | 1018.2 |
| 20260502111604 | 34 | 0 | 0.0 | 0.0 | 0.00 | 0.00 | 0.00 | 75 | 1018.1 |
| 20260502111504 | 34 | 0 | 0.0 | 0.0 | 0.00 | 0.00 | 0.00 | 75 | 1018.1 |
| 20260502111405 | 34 | 0 | 0.0 | 0.0 | 0.00 | 0.00 | 0.00 | 75 | 1018.1 |
| 20260502111304 | 34 | 0 | 0.0 | 0.0 | 0.00 | 0.00 | 0.00 | 75 | 1018.1 |
| 20260502111204 | 34 | 0 | 0.0 | 0.0 | 0.00 | 0.00 | 0.00 | 74 | 1018.1 |
| 20260502111104 | 34 | 0 | 0.0 | 0.0 | 0.00 | 0.00 | 0.00 | 74 | 1018.1 |
| 20260502111019 | 34 | 0 | 0.0 | 0.0 | 0.00 | 0.00 | 0.00 | 74 | 1018.1 |
| 20260502110905 | 34 | 0 | 0.0 | 0.0 | 0.00 | 0.00 | 0.00 | 74 | 1018.1 |
| 20260502110804 | 35 | 0 | 0.0 | 0.0 | 0.00 | 0.00 | 0.00 | 74 | 1018.1 |
| 20260502110705 | 35 | 0 | 0.0 | 0.0 | 0.00 | 0.00 | 0.00 | 74 | 1018.1 |
| 20260502110605 | 35 | 360 | 0.0 | 0.0 | 0.00 | 0.00 | 0.00 | 74 | 1018.1 |
| 20260502110505 | 35 | 360 | 0.0 | 0.9 | 0.00 | 0.00 | 0.00 | 74 | 1018.1 |
| 20260502110404 | 35 | 360 | 0.0 | 0.9 | 0.00 | 0.00 | 0.00 | 74 | 1018.1 |
| 20260502110305 | 35 | 360 | 0.0 | 0.9 | 0.00 | 0.00 | 0.00 | 73 | 1018.1 |
| 20260502110219 | 35 | 360 | 0.0 | 1.7 | 0.00 | 0.00 | 0.00 | 73 | 1018.1 |
| 20260502110104 | 35 | 360 | 0.9 | 1.7 | 0.00 | 0.00 | 0.00 | 73 | 1018.1 |
| 20260502110005 | 35 | 360 | 0.9 | 1.7 | 0.00 | 0.00 | 0.00 | 73 | 1018.1 |
| 20260502105904 | 35 | 360 | 0.9 | 1.7 | 0.00 | 0.00 | 0.00 | 73 | 1018.1 |
| 20260502105806 | 35 | 360 | 0.9 | 1.7 | 0.00 | 0.00 | 0.00 | 73 | 1018.1 |
| 20260502105705 | 36 | 360 | 0.9 | 1.7 | 0.00 | 0.00 | 0.00 | 73 | 1018.1 |
| 20260502105604 | 36 | 360 | 0.9 | 1.7 | 0.00 | 0.00 | 0.00 | 72 | 1018.1 |
| 20260502105505 | 36 | 360 | 0.0 | 1.7 | 0.00 | 0.00 | 0.00 | 72 | 1018.1 |
| 20260502105418 | 36 | 360 | 0.0 | 1.7 | 0.00 | 0.00 | 0.00 | 72 | 1018.1 |
| 20260502105306 | 36 | 360 | 0.0 | 1.7 | 0.00 | 0.00 | 0.00 | 72 | 1018.1 |
| 20260502105204 | 36 | 360 | 0.0 | 1.7 | 0.00 | 0.00 | 0.00 | 72 | 1018.1 |
| 20260502105104 | 36 | 360 | 0.0 | 0.9 | 0.00 | 0.00 | 0.00 | 72 | 1018.1 |
| 20260502105005 | 36 | 0 | 0.0 | 0.0 | 0.00 | 0.00 | 0.00 | 72 | 1018.2 |
| 20260502104904 | 36 | 0 | 0.0 | 0.0 | 0.00 | 0.00 | 0.00 | 72 | 1018.1 |
| 20260502104818 | 36 | 0 | 0.0 | 0.0 | 0.00 | 0.00 | 0.00 | 72 | 1018.2 |
| 20260502104705 | 36 | 0 | 0.0 | 0.0 | 0.00 | 0.00 | 0.00 | 72 | 1018.1 |
| 20260502104604 | 36 | 0 | 0.0 | 0.0 | 0.00 | 0.00 | 0.00 | 72 | 1018.1 |
| 20260502104504 | 36 | 0 | 0.0 | 0.0 | 0.00 | 0.00 | 0.00 | 72 | 1018.2 |
| 20260502104405 | 36 | 0 | 0.0 | 0.0 | 0.00 | 0.00 | 0.00 | 72 | 1018.2 |
| 20260502104304 | 36 | 0 | 0.0 | 0.0 | 0.00 | 0.00 | 0.00 | 72 | 1018.2 |
| 20260502104205 | 36 | 0 | 0.0 | 0.0 | 0.00 | 0.00 | 0.00 | 72 | 1018.2 |
| 20260502104119 | 36 | 0 | 0.0 | 0.0 | 0.00 | 0.00 | 0.00 | 72 | 1018.2 |
| 20260502104004 | 36 | 0 | 0.0 | 0.0 | 0.00 | 0.00 | 0.00 | 72 | 1018.2 |
| 20260502103904 | 36 | 0 | 0.0 | 0.9 | 0.00 | 0.00 | 0.00 | 72 | 1018.2 |
| 20260502103804 | 36 | 360 | 0.0 | 0.9 | 0.00 | 0.00 | 0.00 | 72 | 1018.2 |
| 20260502103704 | 36 | 360 | 0.0 | 0.9 | 0.00 | 0.00 | 0.00 | 72 | 1018.1 |
| 20260502103618 | 36 | 360 | 0.0 | 0.9 | 0.00 | 0.00 | 0.00 | 72 | 1018.1 |
| 20260502103504 | 36 | 360 | 0.0 | 0.9 | 0.00 | 0.00 | 0.00 | 72 | 1018.1 |
| 20260502103405 | 36 | 360 | 0.0 | 0.9 | 0.00 | 0.00 | 0.00 | 72 | 1018.1 |
| 20260502103304 | 36 | 360 | 0.0 | 1.7 | 0.00 | 0.00 | 0.00 | 72 | 1018.1 |
| 20260502103204 | 36 | 360 | 0.0 | 1.7 | 0.00 | 0.00 | 0.00 | 72 | 1018.1 |
| 20260502103105 | 36 | 360 | 0.0 | 1.7 | 0.00 | 0.00 | 0.00 | 72 | 1018.1 |
| 20260502103004 | 36 | 360 | 0.0 | 1.7 | 0.00 | 0.00 | 0.00 | 71 | 1018.1 |
| 20260502102904 | 36 | 360 | 0.0 | 1.7 | 0.00 | 0.00 | 0.00 | 71 | 1018.2 |
| 20260502102805 | 36 | 360 | 0.0 | 1.7 | 0.00 | 0.00 | 0.00 | 71 | 1018.1 |
| 20260502102704 | 36 | 360 | 0.0 | 1.7 | 0.00 | 0.00 | 0.00 | 71 | 1018.2 |
| 20260502102605 | 36 | 360 | 0.0 | 1.7 | 0.00 | 0.00 | 0.00 | 71 | 1018.1 |
| 20260502102519 | 36 | 360 | 0.0 | 1.7 | 0.00 | 0.00 | 0.00 | 71 | 1018.1 |
| 20260502102404 | 36 | 360 | 0.0 | 1.7 | 0.00 | 0.00 | 0.00 | 71 | 1018.2 |
| 20260502102306 | 36 | 360 | 0.0 | 1.7 | 0.00 | 0.00 | 0.00 | 71 | 1018.1 |
| 20260502102218 | 36 | 360 | 0.0 | 1.7 | 0.00 | 0.00 | 0.00 | 71 | 1018.1 |
| 20260502102104 | 36 | 360 | 0.0 | 1.7 | 0.00 | 0.00 | 0.00 | 71 | 1018.1 |
| 20260502102005 | 36 | 360 | 0.0 | 0.9 | 0.00 | 0.00 | 0.00 | 71 | 1018.2 |
| 20260502101919 | 36 | 0 | 0.0 | 0.0 | 0.00 | 0.00 | 0.00 | 71 | 1018.1 |
| 20260502101804 | 36 | 0 | 0.0 | 0.0 | 0.00 | 0.00 | 0.00 | 70 | 1018.1 |
| 20260502101605 | 36 | 0 | 0.0 | 0.0 | 0.00 | 0.00 | 0.00 | 70 | 1018.1 |
| 20260502101504 | 37 | 360 | 0.0 | 0.9 | 0.00 | 0.00 | 0.00 | 70 | 1018.1 |
| 20260502101404 | 37 | 360 | 0.0 | 0.9 | 0.00 | 0.00 | 0.00 | 70 | 1018.1 |
| 20260502101304 | 37 | 360 | 0.0 | 0.9 | 0.00 | 0.00 | 0.00 | 70 | 1018.1 |
| 20260502101204 | 37 | 360 | 0.0 | 0.9 | 0.00 | 0.00 | 0.00 | 70 | 1018.1 |
| 20260502101104 | 37 | 360 | 0.9 | 0.9 | 0.00 | 0.00 | 0.00 | 70 | 1018.1 |
| 20260502101004 | 37 | 360 | 0.9 | 0.9 | 0.00 | 0.00 | 0.00 | 70 | 1018.1 |
| 20260502100905 | 37 | 360 | 0.9 | 0.9 | 0.00 | 0.00 | 0.00 | 70 | 1018.1 |
| 20260502100805 | 37 | 360 | 0.9 | 0.9 | 0.00 | 0.00 | 0.00 | 70 | 1018.1 |
| 20260502100718 | 37 | 360 | 0.9 | 0.9 | 0.00 | 0.00 | 0.00 | 70 | 1018.1 |
| 20260502100605 | 37 | 360 | 0.9 | 0.9 | 0.00 | 0.00 | 0.00 | 70 | 1018.1 |
| 20260502100504 | 37 | 360 | 0.9 | 0.9 | 0.00 | 0.00 | 0.00 | 70 | 1018.1 |
| 20260502100404 | 37 | 360 | 0.9 | 0.9 | 0.00 | 0.00 | 0.00 | 70 | 1018.1 |
| 20260502100304 | 37 | 360 | 0.0 | 0.9 | 0.00 | 0.00 | 0.00 | 70 | 1018.1 |
| 20260502100205 | 37 | 360 | 0.0 | 0.9 | 0.00 | 0.00 | 0.00 | 70 | 1018.1 |
| 20260502100105 | 37 | 360 | 0.0 | 0.9 | 0.00 | 0.00 | 0.00 | 70 | 1018.1 |
| 20260502091505 | 37 | 0 | 0.0 | 1.7 | 0.00 | 0.00 | 0.00 | 70 | 1017.9 |
| 20260502091404 | 36 | 0 | 0.0 | 1.7 | 0.00 | 0.00 | 0.00 | 70 | 1017.9 |
| 20260502091305 | 36 | 0 | 0.0 | 1.7 | 0.00 | 0.00 | 0.00 | 70 | 1017.9 |
| 20260502091204 | 36 | 0 | 0.0 | 1.7 | 0.00 | 0.00 | 0.00 | 70 | 1017.9 |
| 20260502091105 | 36 | 0 | 0.0 | 1.7 | 0.00 | 0.00 | 0.00 | 70 | 1017.9 |
| 20260502091004 | 36 | 0 | 0.0 | 1.7 | 0.00 | 0.00 | 0.00 | 70 | 1017.9 |
| 20260502090904 | 36 | 0 | 0.0 | 1.7 | 0.00 | 0.00 | 0.00 | 70 | 1017.9 |
| 20260502090804 | 36 | 0 | 0.0 | 1.7 | 0.00 | 0.00 | 0.00 | 70 | 1017.9 |
| 20260502090704 | 36 | 0 | 0.0 | 1.7 | 0.00 | 0.00 | 0.00 | 70 | 1017.9 |
| 20260502090619 | 36 | 0 | 0.0 | 1.7 | 0.00 | 0.00 | 0.00 | 70 | 1017.9 |
| 20260502090504 | 36 | 0 | 0.0 | 1.7 | 0.00 | 0.00 | 0.00 | 70 | 1017.9 |
| 20260502090405 | 36 | 0 | 0.0 | 0.0 | 0.00 | 0.00 | 0.00 | 70 | 1017.9 |
| 20260502090304 | 36 | 0 | 0.0 | 0.0 | 0.00 | 0.00 | 0.00 | 70 | 1017.9 |
| 20260502090218 | 36 | 0 | 0.0 | 0.0 | 0.00 | 0.00 | 0.00 | 69 | 1017.9 |
| 20260502090105 | 36 | 0 | 0.0 | 0.0 | 0.00 | 0.00 | 0.00 | 69 | 1017.9 |
| 20260502080105 | 37 | 360 | 0.0 | 1.7 | 0.00 | 0.00 | 0.00 | 67 | 1018.0 |
| 20260502071504 | 38 | 0 | 0.0 | 0.9 | 0.00 | 0.00 | 0.00 | 64 | 1018.2 |
| 20260502071404 | 38 | 0 | 0.0 | 0.9 | 0.00 | 0.00 | 0.00 | 64 | 1018.2 |
| 20260502071318 | 38 | 0 | 0.0 | 0.0 | 0.00 | 0.00 | 0.00 | 64 | 1018.2 |
| 20260502071204 | 38 | 0 | 0.0 | 0.0 | 0.00 | 0.00 | 0.00 | 64 | 1018.3 |
| 20260502071104 | 38 | 0 | 0.0 | 0.0 | 0.00 | 0.00 | 0.00 | 64 | 1018.2 |
| 20260502071004 | 38 | 0 | 0.0 | 0.0 | 0.00 | 0.00 | 0.00 | 64 | 1018.2 |
| 20260502070904 | 38 | 0 | 0.0 | 0.0 | 0.00 | 0.00 | 0.00 | 63 | 1018.2 |
| 20260502070805 | 38 | 0 | 0.0 | 0.0 | 0.00 | 0.00 | 0.00 | 63 | 1018.3 |
| 20260502070704 | 38 | 0 | 0.0 | 0.0 | 0.00 | 0.00 | 0.00 | 63 | 1018.2 |
| 20260502070605 | 38 | 0 | 0.0 | 0.0 | 0.00 | 0.00 | 0.00 | 63 | 1018.3 |
| 20260502070505 | 38 | 0 | 0.0 | 0.0 | 0.00 | 0.00 | 0.00 | 63 | 1018.3 |
| 20260502070419 | 38 | 0 | 0.0 | 0.0 | 0.00 | 0.00 | 0.00 | 63 | 1018.3 |
| 20260502070305 | 38 | 0 | 0.0 | 0.0 | 0.00 | 0.00 | 0.00 | 63 | 1018.3 |
| 20260502070204 | 38 | 0 | 0.0 | 0.0 | 0.00 | 0.00 | 0.00 | 63 | 1018.3 |
| 20260502070104 | 38 | 0 | 0.0 | 0.0 | 0.00 | 0.00 | 0.00 | 63 | 1018.3 |
| 20260502070005 | 38 | 0 | 0.0 | 0.0 | 0.00 | 0.00 | 0.00 | 63 | 1018.3 |
| 20260502065904 | 38 | 0 | 0.0 | 0.0 | 0.00 | 0.00 | 0.00 | 63 | 1018.3 |
| 20260502065805 | 38 | 0 | 0.0 | 0.0 | 0.00 | 0.00 | 0.00 | 63 | 1018.3 |
| 20260502065705 | 38 | 0 | 0.0 | 0.0 | 0.00 | 0.00 | 0.00 | 63 | 1018.3 |
| 20260502065604 | 38 | 0 | 0.0 | 0.0 | 0.00 | 0.00 | 0.00 | 62 | 1018.3 |
| 20260502065505 | 38 | 0 | 0.0 | 0.0 | 0.00 | 0.00 | 0.00 | 62 | 1018.3 |
| 20260502065404 | 38 | 0 | 0.0 | 0.0 | 0.00 | 0.00 | 0.00 | 62 | 1018.3 |
| 20260502065306 | 38 | 0 | 0.0 | 0.0 | 0.00 | 0.00 | 0.00 | 62 | 1018.3 |
| 20260502065204 | 38 | 0 | 0.0 | 0.0 | 0.00 | 0.00 | 0.00 | 62 | 1018.3 |
| 20260502065104 | 38 | 0 | 0.0 | 0.0 | 0.00 | 0.00 | 0.00 | 62 | 1018.3 |
| 20260502065005 | 38 | 0 | 0.0 | 0.0 | 0.00 | 0.00 | 0.00 | 62 | 1018.3 |
| 20260502064905 | 38 | 0 | 0.0 | 0.0 | 0.00 | 0.00 | 0.00 | 62 | 1018.3 |
| 20260502064805 | 38 | 0 | 0.0 | 0.0 | 0.00 | 0.00 | 0.00 | 62 | 1018.3 |
| 20260502064705 | 38 | 0 | 0.0 | 0.0 | 0.00 | 0.00 | 0.00 | 63 | 1018.3 |
| 20260502064604 | 38 | 0 | 0.0 | 0.0 | 0.00 | 0.00 | 0.00 | 62 | 1018.4 |
| 20260502064504 | 38 | 0 | 0.0 | 0.0 | 0.00 | 0.00 | 0.00 | 62 | 1018.3 |
| 20260502064405 | 38 | 0 | 0.0 | 0.0 | 0.00 | 0.00 | 0.00 | 62 | 1018.4 |
| 20260502064305 | 38 | 0 | 0.0 | 0.0 | 0.00 | 0.00 | 0.00 | 62 | 1018.4 |
| 20260502064204 | 39 | 0 | 0.0 | 0.0 | 0.00 | 0.00 | 0.00 | 62 | 1018.3 |
| 20260502064104 | 39 | 0 | 0.0 | 0.0 | 0.00 | 0.00 | 0.00 | 62 | 1018.4 |
| 20260502064004 | 38 | 0 | 0.0 | 0.0 | 0.00 | 0.00 | 0.00 | 62 | 1018.3 |
| 20260502063904 | 38 | 0 | 0.0 | 0.0 | 0.00 | 0.00 | 0.00 | 62 | 1018.3 |
| 20260502063805 | 39 | 0 | 0.0 | 0.0 | 0.00 | 0.00 | 0.00 | 62 | 1018.4 |
| 20260502063705 | 39 | 0 | 0.0 | 0.0 | 0.00 | 0.00 | 0.00 | 62 | 1018.3 |
| 20260502063604 | 39 | 0 | 0.0 | 0.0 | 0.00 | 0.00 | 0.00 | 62 | 1018.4 |
| 20260502063505 | 39 | 0 | 0.0 | 0.0 | 0.00 | 0.00 | 0.00 | 62 | 1018.4 |
| 20260502063404 | 39 | 0 | 0.0 | 0.0 | 0.00 | 0.00 | 0.00 | 62 | 1018.4 |
| 20260502063304 | 39 | 0 | 0.0 | 0.0 | 0.00 | 0.00 | 0.00 | 62 | 1018.4 |
| 20260502063205 | 39 | 0 | 0.0 | 0.0 | 0.00 | 0.00 | 0.00 | 62 | 1018.4 |
| 20260502063104 | 39 | 0 | 0.0 | 0.0 | 0.00 | 0.00 | 0.00 | 62 | 1018.4 |
| 20260502063004 | 39 | 0 | 0.0 | 0.0 | 0.00 | 0.00 | 0.00 | 62 | 1018.4 |
| 20260502062904 | 39 | 0 | 0.0 | 0.0 | 0.00 | 0.00 | 0.00 | 62 | 1018.4 |
| 20260502062804 | 39 | 0 | 0.0 | 0.0 | 0.00 | 0.00 | 0.00 | 62 | 1018.4 |
| 20260502062704 | 39 | 0 | 0.0 | 0.0 | 0.00 | 0.00 | 0.00 | 62 | 1018.4 |
| 20260502062618 | 39 | 0 | 0.0 | 0.0 | 0.00 | 0.00 | 0.00 | 62 | 1018.4 |
| 20260502062504 | 39 | 0 | 0.0 | 0.0 | 0.00 | 0.00 | 0.00 | 62 | 1018.4 |
| 20260502062419 | 39 | 0 | 0.0 | 0.0 | 0.00 | 0.00 | 0.00 | 61 | 1018.4 |
| 20260502062306 | 39 | 0 | 0.0 | 0.0 | 0.00 | 0.00 | 0.00 | 61 | 1018.4 |
| 20260502062218 | 39 | 0 | 0.0 | 0.0 | 0.00 | 0.00 | 0.00 | 61 | 1018.4 |
| 20260502062104 | 39 | 0 | 0.0 | 0.0 | 0.00 | 0.00 | 0.00 | 61 | 1018.4 |
| 20260502062018 | 39 | 0 | 0.0 | 0.0 | 0.00 | 0.00 | 0.00 | 61 | 1018.4 |
| 20260502061905 | 39 | 0 | 0.0 | 0.0 | 0.00 | 0.00 | 0.00 | 61 | 1018.4 |
| 20260502061818 | 39 | 0 | 0.0 | 0.0 | 0.00 | 0.00 | 0.00 | 61 | 1018.4 |
| 20260502061704 | 39 | 0 | 0.0 | 0.0 | 0.00 | 0.00 | 0.00 | 61 | 1018.4 |
| 20260502061605 | 39 | 0 | 0.0 | 0.0 | 0.00 | 0.00 | 0.00 | 61 | 1018.4 |
| 20260502061504 | 39 | 0 | 0.0 | 0.0 | 0.00 | 0.00 | 0.00 | 61 | 1018.5 |
| 20260502061418 | 39 | 0 | 0.0 | 0.0 | 0.00 | 0.00 | 0.00 | 61 | 1018.4 |
| 20260502061305 | 39 | 0 | 0.0 | 0.0 | 0.00 | 0.00 | 0.00 | 61 | 1018.4 |
| 20260502061205 | 39 | 0 | 0.0 | 0.0 | 0.00 | 0.00 | 0.00 | 61 | 1018.5 |
| 20260502061119 | 39 | 0 | 0.0 | 0.0 | 0.00 | 0.00 | 0.00 | 61 | 1018.5 |
| 20260502061006 | 39 | 0 | 0.0 | 0.0 | 0.00 | 0.00 | 0.00 | 60 | 1018.4 |
| 20260502060904 | 39 | 0 | 0.0 | 0.0 | 0.00 | 0.00 | 0.00 | 60 | 1018.5 |
| 20260502060804 | 39 | 0 | 0.0 | 0.0 | 0.00 | 0.00 | 0.00 | 60 | 1018.4 |
| 20260502060704 | 39 | 0 | 0.0 | 0.0 | 0.00 | 0.00 | 0.00 | 61 | 1018.4 |
| 20260502060605 | 39 | 0 | 0.0 | 0.0 | 0.00 | 0.00 | 0.00 | 61 | 1018.4 |
| 20260502060518 | 39 | 0 | 0.0 | 0.0 | 0.00 | 0.00 | 0.00 | 61 | 1018.5 |
| 20260502060404 | 39 | 0 | 0.0 | 0.0 | 0.00 | 0.00 | 0.00 | 61 | 1018.5 |
| 20260502060305 | 39 | 0 | 0.0 | 0.0 | 0.00 | 0.00 | 0.00 | 61 | 1018.5 |
| 20260502060205 | 39 | 0 | 0.0 | 0.0 | 0.00 | 0.00 | 0.00 | 61 | 1018.4 |
| 20260502060104 | 39 | 0 | 0.0 | 0.0 | 0.00 | 0.00 | 0.00 | 61 | 1018.5 |
| 20260502060004 | 39 | 0 | 0.0 | 0.0 | 0.00 | 0.00 | 0.00 | 61 | 1018.5 |
| 20260502055904 | 39 | 0 | 0.0 | 0.0 | 0.00 | 0.00 | 0.00 | 61 | 1018.5 |
| 20260502055804 | 39 | 0 | 0.0 | 0.0 | 0.00 | 0.00 | 0.00 | 60 | 1018.5 |
| 20260502055704 | 39 | 0 | 0.0 | 0.0 | 0.00 | 0.00 | 0.00 | 60 | 1018.5 |
| 20260502055604 | 39 | 0 | 0.0 | 0.0 | 0.00 | 0.00 | 0.00 | 60 | 1018.5 |
| 20260502055504 | 39 | 0 | 0.0 | 0.0 | 0.00 | 0.00 | 0.00 | 60 | 1018.5 |
| 20260502055404 | 39 | 0 | 0.0 | 0.0 | 0.00 | 0.00 | 0.00 | 60 | 1018.5 |
| 20260502055318 | 39 | 0 | 0.0 | 0.0 | 0.00 | 0.00 | 0.00 | 60 | 1018.5 |
| 20260502055204 | 39 | 0 | 0.0 | 0.0 | 0.00 | 0.00 | 0.00 | 60 | 1018.5 |
| 20260502055104 | 39 | 0 | 0.0 | 0.0 | 0.00 | 0.00 | 0.00 | 60 | 1018.5 |
| 20260502055004 | 39 | 0 | 0.0 | 0.0 | 0.00 | 0.00 | 0.00 | 60 | 1018.5 |
| 20260502054904 | 39 | 0 | 0.0 | 0.0 | 0.00 | 0.00 | 0.00 | 59 | 1018.5 |
| 20260502054804 | 40 | 0 | 0.0 | 0.0 | 0.00 | 0.00 | 0.00 | 59 | 1018.5 |
| 20260502054704 | 39 | 0 | 0.0 | 0.0 | 0.00 | 0.00 | 0.00 | 59 | 1018.5 |
| 20260502054604 | 40 | 0 | 0.0 | 0.0 | 0.00 | 0.00 | 0.00 | 59 | 1018.5 |
| 20260502054504 | 40 | 0 | 0.0 | 0.0 | 0.00 | 0.00 | 0.00 | 59 | 1018.5 |
| 20260502054404 | 40 | 0 | 0.0 | 0.0 | 0.00 | 0.00 | 0.00 | 60 | 1018.5 |
| 20260502054305 | 40 | 0 | 0.0 | 0.0 | 0.00 | 0.00 | 0.00 | 60 | 1018.5 |
| 20260502054205 | 40 | 0 | 0.0 | 0.0 | 0.00 | 0.00 | 0.00 | 60 | 1018.5 |
| 20260502054118 | 40 | 0 | 0.0 | 0.0 | 0.00 | 0.00 | 0.00 | 60 | 1018.5 |
| 20260502054004 | 40 | 0 | 0.0 | 0.0 | 0.00 | 0.00 | 0.00 | 60 | 1018.5 |
| 20260502053906 | 40 | 0 | 0.0 | 0.0 | 0.00 | 0.00 | 0.00 | 59 | 1018.5 |
| 20260502053805 | 40 | 0 | 0.0 | 0.0 | 0.00 | 0.00 | 0.00 | 59 | 1018.5 |
| 20260502053704 | 40 | 0 | 0.0 | 0.0 | 0.00 | 0.00 | 0.00 | 59 | 1018.5 |
| 20260502053604 | 40 | 0 | 0.0 | 0.0 | 0.00 | 0.00 | 0.00 | 59 | 1018.5 |
| 20260502053518 | 40 | 0 | 0.0 | 0.0 | 0.00 | 0.00 | 0.00 | 59 | 1018.5 |
| 20260502053405 | 40 | 0 | 0.0 | 0.0 | 0.00 | 0.00 | 0.00 | 59 | 1018.5 |
| 20260502053305 | 40 | 0 | 0.0 | 0.0 | 0.00 | 0.00 | 0.00 | 59 | 1018.5 |
| 20260502053204 | 40 | 0 | 0.0 | 0.0 | 0.00 | 0.00 | 0.00 | 59 | 1018.6 |
| 20260502053118 | 40 | 0 | 0.0 | 0.0 | 0.00 | 0.00 | 0.00 | 59 | 1018.5 |
| 20260502053004 | 40 | 0 | 0.0 | 0.0 | 0.00 | 0.00 | 0.00 | 59 | 1018.5 |
| 20260502052904 | 40 | 0 | 0.0 | 0.0 | 0.00 | 0.00 | 0.00 | 59 | 1018.6 |
| 20260502052804 | 40 | 0 | 0.0 | 0.0 | 0.00 | 0.00 | 0.00 | 59 | 1018.5 |
| 20260502052704 | 40 | 0 | 0.0 | 0.0 | 0.00 | 0.00 | 0.00 | 59 | 1018.6 |
| 20260502052604 | 40 | 0 | 0.0 | 0.0 | 0.00 | 0.00 | 0.00 | 59 | 1018.6 |
| 20260502052504 | 40 | 0 | 0.0 | 0.0 | 0.00 | 0.00 | 0.00 | 59 | 1018.5 |
| 20260502052405 | 40 | 0 | 0.0 | 0.0 | 0.00 | 0.00 | 0.00 | 59 | 1018.5 |
| 20260502052306 | 40 | 0 | 0.0 | 0.0 | 0.00 | 0.00 | 0.00 | 60 | 1018.5 |
| 20260502052204 | 40 | 0 | 0.0 | 0.0 | 0.00 | 0.00 | 0.00 | 60 | 1018.5 |
| 20260502052119 | 40 | 0 | 0.0 | 0.0 | 0.00 | 0.00 | 0.00 | 60 | 1018.6 |
| 20260502052005 | 40 | 0 | 0.0 | 0.0 | 0.00 | 0.00 | 0.00 | 60 | 1018.6 |
| 20260502051918 | 40 | 0 | 0.0 | 0.0 | 0.00 | 0.00 | 0.00 | 60 | 1018.6 |
| 20260502051804 | 39 | 0 | 0.0 | 0.0 | 0.00 | 0.00 | 0.00 | 60 | 1018.6 |
| 20260502051704 | 40 | 0 | 0.0 | 0.0 | 0.00 | 0.00 | 0.00 | 60 | 1018.6 |
| 20260502051604 | 40 | 0 | 0.0 | 0.0 | 0.00 | 0.00 | 0.00 | 60 | 1018.5 |
| 20260502051504 | 40 | 0 | 0.0 | 0.0 | 0.00 | 0.00 | 0.00 | 60 | 1018.6 |
| 20260502051404 | 40 | 0 | 0.0 | 0.0 | 0.00 | 0.00 | 0.00 | 59 | 1018.5 |
| 20260502051305 | 40 | 0 | 0.0 | 0.0 | 0.00 | 0.00 | 0.00 | 59 | 1018.5 |
| 20260502051204 | 40 | 0 | 0.0 | 0.0 | 0.00 | 0.00 | 0.00 | 58 | 1018.5 |
| 20260502051104 | 40 | 0 | 0.0 | 0.0 | 0.00 | 0.00 | 0.00 | 58 | 1018.5 |
| 20260502051018 | 40 | 0 | 0.0 | 0.0 | 0.00 | 0.00 | 0.00 | 58 | 1018.5 |
| 20260502050904 | 40 | 0 | 0.0 | 0.0 | 0.00 | 0.00 | 0.00 | 58 | 1018.5 |
| 20260502050804 | 40 | 0 | 0.0 | 0.0 | 0.00 | 0.00 | 0.00 | 59 | 1018.5 |
| 20260502050704 | 40 | 0 | 0.0 | 0.0 | 0.00 | 0.00 | 0.00 | 59 | 1018.5 |
| 20260502050604 | 40 | 0 | 0.0 | 0.0 | 0.00 | 0.00 | 0.00 | 58 | 1018.5 |
| 20260502050504 | 40 | 0 | 0.0 | 0.0 | 0.00 | 0.00 | 0.00 | 58 | 1018.5 |
| 20260502050404 | 40 | 0 | 0.0 | 0.0 | 0.00 | 0.00 | 0.00 | 58 | 1018.5 |
| 20260502050304 | 40 | 0 | 0.0 | 0.0 | 0.00 | 0.00 | 0.00 | 58 | 1018.4 |
| 20260502050205 | 40 | 0 | 0.0 | 0.0 | 0.00 | 0.00 | 0.00 | 59 | 1018.4 |
| 20260502050104 | 40 | 0 | 0.0 | 0.0 | 0.00 | 0.00 | 0.00 | 59 | 1018.4 |
| 20260502050008 | 40 | 0 | 0.0 | 0.0 | 0.00 | 0.00 | 0.00 | 58 | 1018.4 |
| 20260502045905 | 40 | 0 | 0.0 | 0.0 | 0.00 | 0.00 | 0.00 | 58 | 1018.5 |
| 20260502045805 | 40 | 0 | 0.0 | 0.0 | 0.00 | 0.00 | 0.00 | 58 | 1018.5 |
| 20260502045705 | 40 | 0 | 0.0 | 0.0 | 0.00 | 0.00 | 0.00 | 58 | 1018.5 |
| 20260502045605 | 40 | 0 | 0.0 | 0.0 | 0.00 | 0.00 | 0.00 | 58 | 1018.4 |
| 20260502045505 | 40 | 0 | 0.0 | 0.0 | 0.00 | 0.00 | 0.00 | 58 | 1018.4 |
| 20260502045405 | 40 | 0 | 0.0 | 0.0 | 0.00 | 0.00 | 0.00 | 58 | 1018.4 |
| 20260502045306 | 40 | 0 | 0.0 | 0.0 | 0.00 | 0.00 | 0.00 | 58 | 1018.4 |
| 20260502045204 | 40 | 0 | 0.0 | 0.0 | 0.00 | 0.00 | 0.00 | 57 | 1018.4 |
| 20260502045104 | 40 | 0 | 0.0 | 0.0 | 0.00 | 0.00 | 0.00 | 57 | 1018.5 |
| 20260502045004 | 40 | 0 | 0.0 | 0.0 | 0.00 | 0.00 | 0.00 | 57 | 1018.4 |
| 20260502044904 | 40 | 0 | 0.0 | 0.0 | 0.00 | 0.00 | 0.00 | 57 | 1018.4 |
| 20260502044819 | 40 | 0 | 0.0 | 0.0 | 0.00 | 0.00 | 0.00 | 57 | 1018.4 |
| 20260502044705 | 40 | 0 | 0.0 | 0.0 | 0.00 | 0.00 | 0.00 | 57 | 1018.4 |
| 20260502044604 | 41 | 0 | 0.0 | 0.0 | 0.00 | 0.00 | 0.00 | 57 | 1018.4 |
| 20260502044508 | 41 | 0 | 0.0 | 0.0 | 0.00 | 0.00 | 0.00 | 56 | 1018.5 |
| 20260502044405 | 41 | 0 | 0.0 | 0.0 | 0.00 | 0.00 | 0.00 | 56 | 1018.4 |
| 20260502044305 | 41 | 0 | 0.0 | 0.0 | 0.00 | 0.00 | 0.00 | 56 | 1018.4 |
| 20260502044205 | 41 | 0 | 0.0 | 0.0 | 0.00 | 0.00 | 0.00 | 56 | 1018.4 |
| 20260502044104 | 41 | 0 | 0.0 | 0.0 | 0.00 | 0.00 | 0.00 | 56 | 1018.4 |
| 20260502044004 | 41 | 0 | 0.0 | 0.0 | 0.00 | 0.00 | 0.00 | 56 | 1018.4 |
| 20260502043904 | 41 | 0 | 0.0 | 0.0 | 0.00 | 0.00 | 0.00 | 56 | 1018.4 |
| 20260502043818 | 41 | 0 | 0.0 | 0.0 | 0.00 | 0.00 | 0.00 | 57 | 1018.4 |
| 20260502043704 | 41 | 0 | 0.0 | 0.0 | 0.00 | 0.00 | 0.00 | 57 | 1018.4 |
| 20260502043604 | 41 | 0 | 0.0 | 0.0 | 0.00 | 0.00 | 0.00 | 57 | 1018.4 |
| 20260502043505 | 41 | 0 | 0.0 | 0.0 | 0.00 | 0.00 | 0.00 | 57 | 1018.4 |
| 20260502043404 | 41 | 0 | 0.0 | 0.0 | 0.00 | 0.00 | 0.00 | 57 | 1018.4 |
| 20260502043304 | 41 | 0 | 0.0 | 0.0 | 0.00 | 0.00 | 0.00 | 57 | 1018.4 |
| 20260502043204 | 41 | 0 | 0.0 | 0.0 | 0.00 | 0.00 | 0.00 | 57 | 1018.4 |
| 20260502043105 | 41 | 0 | 0.0 | 0.0 | 0.00 | 0.00 | 0.00 | 57 | 1018.4 |
| 20260502043004 | 41 | 0 | 0.0 | 0.0 | 0.00 | 0.00 | 0.00 | 58 | 1018.4 |
| 20260502042904 | 41 | 0 | 0.0 | 0.0 | 0.00 | 0.00 | 0.00 | 58 | 1018.4 |
| 20260502042804 | 41 | 0 | 0.0 | 0.0 | 0.00 | 0.00 | 0.00 | 58 | 1018.4 |
| 20260502042719 | 41 | 0 | 0.0 | 0.0 | 0.00 | 0.00 | 0.00 | 58 | 1018.5 |
| 20260502042618 | 41 | 0 | 0.0 | 0.0 | 0.00 | 0.00 | 0.00 | 57 | 1018.4 |
| 20260502042504 | 41 | 0 | 0.0 | 0.0 | 0.00 | 0.00 | 0.00 | 57 | 1018.4 |
| 20260502042404 | 41 | 0 | 0.0 | 0.0 | 0.00 | 0.00 | 0.00 | 57 | 1018.5 |
| 20260502042318 | 41 | 0 | 0.0 | 0.0 | 0.00 | 0.00 | 0.00 | 57 | 1018.4 |
| 20260502042205 | 41 | 0 | 0.0 | 1.7 | 0.00 | 0.00 | 0.00 | 57 | 1018.4 |
| 20260502042118 | 41 | 0 | 0.0 | 1.7 | 0.00 | 0.00 | 0.00 | 57 | 1018.4 |
| 20260502042018 | 41 | 360 | 0.0 | 1.7 | 0.00 | 0.00 | 0.00 | 57 | 1018.4 |
| 20260502041904 | 41 | 360 | 0.0 | 1.7 | 0.00 | 0.00 | 0.00 | 57 | 1018.4 |
| 20260502041804 | 41 | 360 | 0.0 | 1.7 | 0.00 | 0.00 | 0.00 | 56 | 1018.4 |
| 20260502041704 | 41 | 360 | 0.0 | 1.7 | 0.00 | 0.00 | 0.00 | 57 | 1018.4 |
| 20260502041604 | 41 | 360 | 0.0 | 1.7 | 0.00 | 0.00 | 0.00 | 57 | 1018.4 |
| 20260502041504 | 41 | 360 | 0.0 | 1.7 | 0.00 | 0.00 | 0.00 | 56 | 1018.4 |
| 20260502041419 | 41 | 360 | 0.0 | 1.7 | 0.00 | 0.00 | 0.00 | 56 | 1018.4 |
| 20260502041304 | 41 | 360 | 0.0 | 1.7 | 0.00 | 0.00 | 0.00 | 56 | 1018.4 |
| 20260502041204 | 41 | 360 | 0.0 | 1.7 | 0.00 | 0.00 | 0.00 | 56 | 1018.4 |
| 20260502041104 | 41 | 360 | 0.0 | 1.7 | 0.00 | 0.00 | 0.00 | 56 | 1018.4 |
| 20260502041005 | 41 | 360 | 0.0 | 1.7 | 0.00 | 0.00 | 0.00 | 55 | 1018.4 |
| 20260502040904 | 41 | 360 | 0.0 | 1.7 | 0.00 | 0.00 | 0.00 | 55 | 1018.4 |
| 20260502040804 | 41 | 360 | 0.0 | 1.7 | 0.00 | 0.00 | 0.00 | 55 | 1018.4 |
| 20260502040704 | 42 | 360 | 0.0 | 1.7 | 0.00 | 0.00 | 0.00 | 55 | 1018.4 |
| 20260502040604 | 42 | 360 | 0.0 | 1.7 | 0.00 | 0.00 | 0.00 | 55 | 1018.4 |
| 20260502040504 | 41 | 360 | 0.0 | 1.7 | 0.00 | 0.00 | 0.00 | 55 | 1018.4 |
| 20260502040404 | 42 | 360 | 0.0 | 1.7 | 0.00 | 0.00 | 0.00 | 55 | 1018.4 |
| 20260502040304 | 42 | 360 | 0.0 | 1.7 | 0.00 | 0.00 | 0.00 | 55 | 1018.4 |
| 20260502040204 | 42 | 360 | 0.0 | 1.7 | 0.00 | 0.00 | 0.00 | 55 | 1018.4 |
| 20260502040105 | 42 | 360 | 0.0 | 1.7 | 0.00 | 0.00 | 0.00 | 54 | 1018.4 |
| 20260502040005 | 42 | 0 | 0.0 | 0.9 | 0.00 | 0.00 | 0.00 | 54 | 1018.4 |
| 20260502035904 | 42 | 0 | 0.0 | 0.9 | 0.00 | 0.00 | 0.00 | 54 | 1018.4 |
| 20260502035804 | 42 | 0 | 0.0 | 0.9 | 0.00 | 0.00 | 0.00 | 55 | 1018.5 |
| 20260502035719 | 42 | 0 | 0.0 | 0.9 | 0.00 | 0.00 | 0.00 | 55 | 1018.4 |
| 20260502035618 | 42 | 0 | 0.0 | 0.9 | 0.00 | 0.00 | 0.00 | 55 | 1018.5 |
| 20260502035505 | 42 | 0 | 0.0 | 0.9 | 0.00 | 0.00 | 0.00 | 55 | 1018.4 |
| 20260502035405 | 42 | 0 | 0.0 | 0.9 | 0.00 | 0.00 | 0.00 | 54 | 1018.4 |
| 20260502035306 | 42 | 0 | 0.0 | 0.0 | 0.00 | 0.00 | 0.00 | 53 | 1018.4 |
| 20260502035205 | 42 | 0 | 0.0 | 0.0 | 0.00 | 0.00 | 0.00 | 53 | 1018.4 |
| 20260502035104 | 42 | 0 | 0.0 | 0.0 | 0.00 | 0.00 | 0.00 | 53 | 1018.4 |
| 20260502035004 | 42 | 0 | 0.0 | 0.0 | 0.00 | 0.00 | 0.00 | 53 | 1018.5 |
| 20260502034904 | 42 | 0 | 0.0 | 0.0 | 0.00 | 0.00 | 0.00 | 53 | 1018.4 |
| 20260502034804 | 42 | 0 | 0.0 | 0.0 | 0.00 | 0.00 | 0.00 | 53 | 1018.5 |
| 20260502034718 | 42 | 0 | 0.0 | 0.0 | 0.00 | 0.00 | 0.00 | 53 | 1018.5 |
| 20260502034605 | 42 | 0 | 0.0 | 0.0 | 0.00 | 0.00 | 0.00 | 54 | 1018.5 |
| 20260502034504 | 42 | 0 | 0.0 | 0.0 | 0.00 | 0.00 | 0.00 | 54 | 1018.4 |
| 20260502034404 | 42 | 0 | 0.0 | 0.0 | 0.00 | 0.00 | 0.00 | 53 | 1018.5 |
| 20260502034305 | 42 | 0 | 0.0 | 0.0 | 0.00 | 0.00 | 0.00 | 53 | 1018.4 |
| 20260502034204 | 42 | 0 | 0.0 | 0.0 | 0.00 | 0.00 | 0.00 | 53 | 1018.4 |
| 20260502034104 | 42 | 0 | 0.0 | 0.0 | 0.00 | 0.00 | 0.00 | 53 | 1018.4 |
| 20260502034004 | 42 | 0 | 0.0 | 0.0 | 0.00 | 0.00 | 0.00 | 53 | 1018.5 |
| 20260502033904 | 42 | 0 | 0.0 | 0.0 | 0.00 | 0.00 | 0.00 | 53 | 1018.5 |
| 20260502033804 | 42 | 0 | 0.0 | 0.0 | 0.00 | 0.00 | 0.00 | 53 | 1018.5 |
| 20260502033705 | 42 | 0 | 0.0 | 0.0 | 0.00 | 0.00 | 0.00 | 53 | 1018.5 |
| 20260502033604 | 42 | 0 | 0.0 | 0.0 | 0.00 | 0.00 | 0.00 | 53 | 1018.5 |
| 20260502033505 | 42 | 0 | 0.0 | 0.0 | 0.00 | 0.00 | 0.00 | 52 | 1018.5 |
| 20260502033404 | 43 | 0 | 0.0 | 0.0 | 0.00 | 0.00 | 0.00 | 52 | 1018.5 |
| 20260502033305 | 43 | 0 | 0.0 | 0.0 | 0.00 | 0.00 | 0.00 | 52 | 1018.5 |
| 20260502033204 | 43 | 0 | 0.0 | 0.0 | 0.00 | 0.00 | 0.00 | 52 | 1018.6 |
| 20260502033104 | 43 | 0 | 0.0 | 0.0 | 0.00 | 0.00 | 0.00 | 52 | 1018.5 |
| 20260502033004 | 43 | 0 | 0.0 | 0.0 | 0.00 | 0.00 | 0.00 | 52 | 1018.5 |
| 20260502032918 | 43 | 0 | 0.0 | 0.0 | 0.00 | 0.00 | 0.00 | 52 | 1018.5 |
| 20260502032805 | 43 | 0 | 0.0 | 0.0 | 0.00 | 0.00 | 0.00 | 51 | 1018.6 |
| 20260502032704 | 43 | 0 | 0.0 | 0.0 | 0.00 | 0.00 | 0.00 | 51 | 1018.5 |
| 20260502032604 | 43 | 0 | 0.0 | 0.0 | 0.00 | 0.00 | 0.00 | 50 | 1018.5 |
| 20260502032504 | 43 | 0 | 0.0 | 0.0 | 0.00 | 0.00 | 0.00 | 50 | 1018.5 |
| 20260502032404 | 43 | 0 | 0.0 | 0.0 | 0.00 | 0.00 | 0.00 | 50 | 1018.6 |
| 20260502032306 | 43 | 0 | 0.0 | 0.0 | 0.00 | 0.00 | 0.00 | 50 | 1018.5 |
| 20260502032218 | 43 | 0 | 0.0 | 0.0 | 0.00 | 0.00 | 0.00 | 50 | 1018.5 |
| 20260502032104 | 43 | 0 | 0.0 | 0.0 | 0.00 | 0.00 | 0.00 | 49 | 1018.5 |
| 20260502032005 | 43 | 0 | 0.0 | 0.0 | 0.00 | 0.00 | 0.00 | 49 | 1018.6 |
| 20260502031905 | 43 | 0 | 0.0 | 0.0 | 0.00 | 0.00 | 0.00 | 48 | 1018.5 |
| 20260502031804 | 43 | 0 | 0.0 | 0.0 | 0.00 | 0.00 | 0.00 | 48 | 1018.5 |
| 20260502031718 | 43 | 0 | 0.0 | 0.0 | 0.00 | 0.00 | 0.00 | 48 | 1018.5 |
| 20260502031604 | 43 | 0 | 0.0 | 0.0 | 0.00 | 0.00 | 0.00 | 48 | 1018.5 |
| 20260502031504 | 43 | 0 | 0.0 | 0.0 | 0.00 | 0.00 | 0.00 | 48 | 1018.5 |
| 20260502031404 | 44 | 0 | 0.0 | 0.0 | 0.00 | 0.00 | 0.00 | 48 | 1018.5 |
| 20260502031304 | 44 | 0 | 0.0 | 0.0 | 0.00 | 0.00 | 0.00 | 48 | 1018.5 |
| 20260502031204 | 44 | 0 | 0.0 | 0.0 | 0.00 | 0.00 | 0.00 | 48 | 1018.5 |
| 20260502031105 | 44 | 0 | 0.0 | 0.9 | 0.00 | 0.00 | 0.00 | 48 | 1018.4 |
| 20260502031004 | 44 | 360 | 0.0 | 1.7 | 0.00 | 0.00 | 0.00 | 48 | 1018.5 |
| 20260502030904 | 44 | 360 | 0.0 | 1.7 | 0.00 | 0.00 | 0.00 | 49 | 1018.5 |
| 20260502030805 | 44 | 360 | 0.0 | 1.7 | 0.00 | 0.00 | 0.00 | 49 | 1018.5 |
| 20260502030718 | 44 | 360 | 0.0 | 1.7 | 0.00 | 0.00 | 0.00 | 49 | 1018.5 |
| 20260502030604 | 44 | 360 | 0.0 | 1.7 | 0.00 | 0.00 | 0.00 | 49 | 1018.4 |
| 20260502030505 | 44 | 360 | 0.0 | 1.7 | 0.00 | 0.00 | 0.00 | 49 | 1018.4 |
| 20260502030404 | 44 | 360 | 0.0 | 1.7 | 0.00 | 0.00 | 0.00 | 49 | 1018.5 |
| 20260502030304 | 44 | 360 | 0.0 | 1.7 | 0.00 | 0.00 | 0.00 | 49 | 1018.4 |
| 20260502030205 | 44 | 360 | 0.0 | 1.7 | 0.00 | 0.00 | 0.00 | 48 | 1018.5 |
| 20260502030105 | 44 | 360 | 0.0 | 1.7 | 0.00 | 0.00 | 0.00 | 48 | 1018.4 |
| 20260502030005 | 44 | 360 | 0.0 | 1.7 | 0.00 | 0.00 | 0.00 | 48 | 1018.4 |
| 20260502025904 | 44 | 0 | 0.0 | 1.7 | 0.00 | 0.00 | 0.00 | 48 | 1018.4 |
| 20260502025804 | 44 | 0 | 0.0 | 1.7 | 0.00 | 0.00 | 0.00 | 48 | 1018.4 |
| 20260502025704 | 44 | 0 | 0.0 | 0.0 | 0.00 | 0.00 | 0.00 | 48 | 1018.4 |
| 20260502025604 | 44 | 0 | 0.0 | 0.0 | 0.00 | 0.00 | 0.00 | 48 | 1018.4 |
| 20260502025504 | 44 | 0 | 0.0 | 0.0 | 0.00 | 0.00 | 0.00 | 48 | 1018.4 |
| 20260502025419 | 44 | 0 | 0.0 | 0.0 | 0.00 | 0.00 | 0.00 | 48 | 1018.5 |
| 20260502025306 | 44 | 0 | 0.0 | 0.0 | 0.00 | 0.00 | 0.00 | 48 | 1018.5 |
| 20260502025205 | 44 | 0 | 0.0 | 0.0 | 0.00 | 0.00 | 0.00 | 48 | 1018.4 |
| 20260502025105 | 44 | 0 | 0.0 | 0.0 | 0.00 | 0.00 | 0.00 | 48 | 1018.5 |
| 20260502025004 | 44 | 0 | 0.0 | 0.0 | 0.00 | 0.00 | 0.00 | 48 | 1018.5 |
| 20260502024904 | 44 | 0 | 0.0 | 1.7 | 0.00 | 0.00 | 0.00 | 48 | 1018.4 |
| 20260502024804 | 44 | 0 | 0.0 | 1.7 | 0.00 | 0.00 | 0.00 | 48 | 1018.5 |
| 20260502024704 | 44 | 0 | 0.0 | 1.7 | 0.00 | 0.00 | 0.00 | 48 | 1018.5 |
| 20260502024605 | 44 | 0 | 0.0 | 1.7 | 0.00 | 0.00 | 0.00 | 48 | 1018.4 |
| 20260502024504 | 44 | 0 | 0.0 | 1.7 | 0.00 | 0.00 | 0.00 | 48 | 1018.4 |
| 20260502024405 | 44 | 0 | 0.0 | 1.7 | 0.00 | 0.00 | 0.00 | 48 | 1018.5 |
| 20260502024319 | 44 | 0 | 0.0 | 1.7 | 0.00 | 0.00 | 0.00 | 48 | 1018.5 |
| 20260502024204 | 44 | 0 | 0.0 | 1.7 | 0.00 | 0.00 | 0.00 | 48 | 1018.4 |
| 20260502024104 | 44 | 0 | 0.0 | 1.7 | 0.00 | 0.00 | 0.00 | 48 | 1018.5 |
| 20260502024004 | 44 | 0 | 0.0 | 1.7 | 0.00 | 0.00 | 0.00 | 48 | 1018.4 |
| 20260502023918 | 45 | 0 | 0.0 | 1.7 | 0.00 | 0.00 | 0.00 | 47 | 1018.4 |
| 20260502023818 | 45 | 0 | 0.0 | 0.0 | 0.00 | 0.00 | 0.00 | 47 | 1018.4 |
| 20260502023718 | 45 | 0 | 0.0 | 0.0 | 0.00 | 0.00 | 0.00 | 47 | 1018.4 |
| 20260502023604 | 45 | 0 | 0.0 | 0.0 | 0.00 | 0.00 | 0.00 | 46 | 1018.4 |
| 20260502023504 | 45 | 0 | 0.0 | 0.0 | 0.00 | 0.00 | 0.00 | 47 | 1018.5 |
| 20260502023418 | 45 | 0 | 0.0 | 0.0 | 0.00 | 0.00 | 0.00 | 46 | 1018.4 |
| 20260502023318 | 45 | 0 | 0.0 | 0.0 | 0.00 | 0.00 | 0.00 | 46 | 1018.5 |
| 20260502023204 | 45 | 0 | 0.0 | 0.0 | 0.00 | 0.00 | 0.00 | 45 | 1018.5 |
| 20260502023104 | 45 | 0 | 0.0 | 0.0 | 0.00 | 0.00 | 0.00 | 45 | 1018.5 |
| 20260502023004 | 45 | 0 | 0.0 | 0.0 | 0.00 | 0.00 | 0.00 | 45 | 1018.5 |
| 20260502022904 | 45 | 0 | 0.0 | 0.0 | 0.00 | 0.00 | 0.00 | 45 | 1018.5 |
| 20260502022804 | 45 | 0 | 0.0 | 0.0 | 0.00 | 0.00 | 0.00 | 44 | 1018.4 |
| 20260502022704 | 45 | 0 | 0.0 | 0.0 | 0.00 | 0.00 | 0.00 | 44 | 1018.5 |
| 20260502022604 | 45 | 0 | 0.0 | 0.0 | 0.00 | 0.00 | 0.00 | 44 | 1018.4 |
| 20260502022504 | 46 | 0 | 0.0 | 1.7 | 0.00 | 0.00 | 0.00 | 44 | 1018.5 |
| 20260502022418 | 46 | 0 | 0.0 | 1.7 | 0.00 | 0.00 | 0.00 | 44 | 1018.4 |
| 20260502022306 | 46 | 0 | 0.0 | 1.7 | 0.00 | 0.00 | 0.00 | 44 | 1018.5 |
| 20260502022204 | 46 | 0 | 0.0 | 1.7 | 0.00 | 0.00 | 0.00 | 44 | 1018.5 |
| 20260502022104 | 46 | 0 | 0.0 | 1.7 | 0.00 | 0.00 | 0.00 | 44 | 1018.4 |
| 20260502022018 | 46 | 0 | 0.0 | 1.7 | 0.00 | 0.00 | 0.00 | 44 | 1018.4 |
| 20260502021904 | 46 | 0 | 0.0 | 1.7 | 0.00 | 0.00 | 0.00 | 44 | 1018.4 |
| 20260502021818 | 46 | 0 | 0.0 | 1.7 | 0.00 | 0.00 | 0.00 | 44 | 1018.5 |
| 20260502021704 | 46 | 360 | 0.0 | 1.7 | 0.00 | 0.00 | 0.00 | 44 | 1018.4 |
| 20260502021604 | 46 | 360 | 0.0 | 1.7 | 0.00 | 0.00 | 0.00 | 42 | 1018.4 |
| 20260502021505 | 46 | 360 | 0.0 | 1.7 | 0.00 | 0.00 | 0.00 | 42 | 1018.4 |
| 20260502021404 | 46 | 360 | 0.0 | 1.7 | 0.00 | 0.00 | 0.00 | 42 | 1018.4 |
| 20260502021304 | 46 | 360 | 0.0 | 1.7 | 0.00 | 0.00 | 0.00 | 42 | 1018.4 |
| 20260502021205 | 46 | 360 | 0.0 | 1.7 | 0.00 | 0.00 | 0.00 | 42 | 1018.4 |
| 20260502021104 | 46 | 360 | 0.0 | 1.7 | 0.00 | 0.00 | 0.00 | 42 | 1018.4 |
| 20260502021004 | 46 | 360 | 0.0 | 1.7 | 0.00 | 0.00 | 0.00 | 42 | 1018.4 |
| 20260502020919 | 46 | 360 | 0.0 | 1.7 | 0.00 | 0.00 | 0.00 | 42 | 1018.4 |
| 20260502020804 | 46 | 360 | 0.0 | 1.7 | 0.00 | 0.00 | 0.00 | 42 | 1018.4 |
| 20260502020704 | 46 | 360 | 0.0 | 1.7 | 0.00 | 0.00 | 0.00 | 42 | 1018.4 |
| 20260502020604 | 46 | 360 | 0.0 | 1.7 | 0.00 | 0.00 | 0.00 | 42 | 1018.4 |
| 20260502020504 | 46 | 360 | 0.0 | 1.7 | 0.00 | 0.00 | 0.00 | 43 | 1018.3 |
| 20260502020404 | 47 | 360 | 0.0 | 1.7 | 0.00 | 0.00 | 0.00 | 42 | 1018.3 |
| 20260502020304 | 47 | 360 | 0.0 | 0.9 | 0.00 | 0.00 | 0.00 | 42 | 1018.3 |
| 20260502020204 | 47 | 0 | 0.0 | 0.0 | 0.00 | 0.00 | 0.00 | 42 | 1018.3 |
| 20260502020118 | 47 | 0 | 0.0 | 0.0 | 0.00 | 0.00 | 0.00 | 42 | 1018.3 |
| 20260502020019 | 47 | 0 | 0.0 | 0.0 | 0.00 | 0.00 | 0.00 | 42 | 1018.3 |
| 20260502015904 | 47 | 0 | 0.0 | 0.0 | 0.00 | 0.00 | 0.00 | 42 | 1018.3 |
| 20260502015805 | 47 | 0 | 0.0 | 0.0 | 0.00 | 0.00 | 0.00 | 42 | 1018.2 |
| 20260502015704 | 47 | 0 | 0.0 | 0.0 | 0.00 | 0.00 | 0.00 | 42 | 1018.3 |
| 20260502015604 | 47 | 0 | 0.0 | 0.0 | 0.00 | 0.00 | 0.00 | 40 | 1018.1 |
| 20260502015504 | 47 | 0 | 0.0 | 0.0 | 0.00 | 0.00 | 0.00 | 40 | 1018.2 |
| 20260502015404 | 47 | 0 | 0.0 | 0.0 | 0.00 | 0.00 | 0.00 | 40 | 1018.1 |
| 20260502015305 | 47 | 0 | 0.0 | 0.9 | 0.00 | 0.00 | 0.00 | 40 | 1018.1 |
| 20260502015204 | 47 | 360 | 0.0 | 0.9 | 0.00 | 0.00 | 0.00 | 40 | 1018.1 |
| 20260502015104 | 48 | 360 | 0.0 | 0.9 | 0.00 | 0.00 | 0.00 | 40 | 1018.1 |
| 20260502015018 | 48 | 360 | 0.0 | 0.9 | 0.00 | 0.00 | 0.00 | 40 | 1018.0 |
| 20260502014904 | 48 | 360 | 0.0 | 1.7 | 0.00 | 0.00 | 0.00 | 39 | 1018.0 |
| 20260502014804 | 48 | 360 | 0.0 | 1.7 | 0.00 | 0.00 | 0.00 | 39 | 1018.1 |
| 20260502014704 | 48 | 360 | 0.0 | 1.7 | 0.00 | 0.00 | 0.00 | 39 | 1018.0 |
| 20260502014618 | 48 | 360 | 0.0 | 1.7 | 0.00 | 0.00 | 0.00 | 39 | 1018.0 |
| 20260502014504 | 48 | 360 | 0.0 | 1.7 | 0.00 | 0.00 | 0.00 | 40 | 1018.0 |
| 20260502014404 | 48 | 360 | 0.0 | 1.7 | 0.00 | 0.00 | 0.00 | 40 | 1018.0 |
| 20260502014304 | 48 | 360 | 0.0 | 1.7 | 0.00 | 0.00 | 0.00 | 39 | 1018.0 |
| 20260502014204 | 48 | 360 | 0.0 | 1.7 | 0.00 | 0.00 | 0.00 | 38 | 1018.0 |
| 20260502014104 | 48 | 360 | 0.0 | 1.7 | 0.00 | 0.00 | 0.00 | 38 | 1017.9 |
| 20260502014004 | 48 | 360 | 0.0 | 1.7 | 0.00 | 0.00 | 0.00 | 38 | 1017.9 |
| 20260502013904 | 48 | 360 | 0.0 | 1.7 | 0.00 | 0.00 | 0.00 | 37 | 1017.9 |
| 20260502013804 | 48 | 360 | 0.0 | 0.9 | 0.00 | 0.00 | 0.00 | 37 | 1017.9 |
| 20260502013704 | 49 | 360 | 0.0 | 0.9 | 0.00 | 0.00 | 0.00 | 37 | 1017.9 |
| 20260502013605 | 49 | 360 | 0.0 | 0.9 | 0.00 | 0.00 | 0.00 | 36 | 1017.9 |
| 20260502013505 | 49 | 360 | 0.0 | 0.9 | 0.00 | 0.00 | 0.00 | 36 | 1017.9 |
| 20260502013404 | 49 | 0 | 0.0 | 0.0 | 0.00 | 0.00 | 0.00 | 36 | 1017.9 |
| 20260502013318 | 49 | 0 | 0.0 | 0.0 | 0.00 | 0.00 | 0.00 | 36 | 1018.0 |
| 20260502013204 | 49 | 0 | 0.0 | 0.0 | 0.00 | 0.00 | 0.00 | 35 | 1017.9 |
| 20260502013104 | 49 | 0 | 0.0 | 0.0 | 0.00 | 0.00 | 0.00 | 35 | 1017.9 |
| 20260502013004 | 49 | 0 | 0.0 | 0.0 | 0.00 | 0.00 | 0.00 | 35 | 1017.9 |
| 20260502012904 | 49 | 0 | 0.0 | 0.0 | 0.00 | 0.00 | 0.00 | 36 | 1017.9 |
| 20260502012804 | 49 | 0 | 0.0 | 1.7 | 0.00 | 0.00 | 0.00 | 35 | 1017.9 |
| 20260502012705 | 49 | 360 | 0.0 | 1.7 | 0.00 | 0.00 | 0.00 | 35 | 1017.9 |
| 20260502012605 | 49 | 360 | 0.0 | 1.7 | 0.00 | 0.00 | 0.00 | 35 | 1017.9 |
| 20260502012505 | 49 | 360 | 0.0 | 1.7 | 0.00 | 0.00 | 0.00 | 34 | 1017.9 |
| 20260502012404 | 49 | 360 | 0.0 | 1.7 | 0.00 | 0.00 | 0.00 | 34 | 1017.9 |
| 20260502012306 | 49 | 360 | 0.0 | 1.7 | 0.00 | 0.00 | 0.00 | 34 | 1017.9 |
| 20260502012204 | 50 | 360 | 0.0 | 1.7 | 0.00 | 0.00 | 0.00 | 34 | 1017.9 |
| 20260502012104 | 50 | 360 | 0.0 | 1.7 | 0.00 | 0.00 | 0.00 | 35 | 1017.9 |
| 20260502012004 | 50 | 360 | 0.0 | 1.7 | 0.00 | 0.00 | 0.00 | 35 | 1017.9 |
| 20260502011904 | 50 | 360 | 0.0 | 1.7 | 0.00 | 0.00 | 0.00 | 35 | 1017.9 |
| 20260502011805 | 50 | 360 | 0.0 | 1.7 | 0.00 | 0.00 | 0.00 | 33 | 1017.9 |
| 20260502011718 | 50 | 0 | 0.0 | 1.7 | 0.00 | 0.00 | 0.00 | 34 | 1017.9 |
| 20260502011604 | 50 | 0 | 0.0 | 0.0 | 0.00 | 0.00 | 0.00 | 34 | 1017.8 |
| 20260502011518 | 50 | 0 | 0.0 | 0.9 | 0.00 | 0.00 | 0.00 | 34 | 1017.9 |
| 20260502011405 | 50 | 360 | 0.0 | 0.9 | 0.00 | 0.00 | 0.00 | 34 | 1017.9 |
| 20260502011304 | 50 | 360 | 0.0 | 0.9 | 0.00 | 0.00 | 0.00 | 34 | 1017.9 |
| 20260502011204 | 50 | 360 | 0.0 | 0.9 | 0.00 | 0.00 | 0.00 | 34 | 1017.9 |
| 20260502011104 | 50 | 360 | 0.0 | 0.9 | 0.00 | 0.00 | 0.00 | 34 | 1017.9 |
| 20260502011004 | 50 | 360 | 0.0 | 0.9 | 0.00 | 0.00 | 0.00 | 34 | 1017.9 |
| 20260502010918 | 50 | 360 | 0.9 | 3.5 | 0.00 | 0.00 | 0.00 | 34 | 1017.9 |
| 20260502010804 | 50 | 360 | 0.9 | 3.5 | 0.00 | 0.00 | 0.00 | 34 | 1017.9 |
| 20260502010704 | 50 | 360 | 0.9 | 3.5 | 0.00 | 0.00 | 0.00 | 34 | 1018.0 |
| 20260502010604 | 50 | 360 | 0.9 | 3.5 | 0.00 | 0.00 | 0.00 | 34 | 1017.9 |
| 20260502010518 | 50 | 360 | 0.9 | 3.5 | 0.00 | 0.00 | 0.00 | 34 | 1018.0 |